Latitude: N 50° 09' 49" Longitude: W 05° 11' 53" Elevation: 168m ASL

There are 10 visitors online

Adverts

<- Previous Day | Today | Next Day ->

All Data for 08 February 2018

Time
A - D
Temp
A - D
Dew Point
A - D
Humidity
A - D
Pressure
A - D
Wind
A - D
Wind Dir Gust
A - D
Rain Rate
A - D
Rain Total
23:59 6.7 6.6 99 1009.0 7.6 WSW 13.6 0.0 14.8
23:57 6.7 6.6 99 1008.9 9.8 WSW 13.6 0.0 14.8
23:56 6.7 6.6 99 1008.9 9.2 WSW 13.6 0.0 14.8
23:55 6.7 6.6 99 1009.0 9.2 W 13.6 0.0 14.8
23:53 6.7 6.6 99 1009.1 10.7 W 13.6 0.0 14.8
23:52 6.7 6.6 99 1009.0 9.8 WSW 13.6 0.0 14.8
23:51 6.7 6.6 99 1008.9 13.6 W 13.6 0.0 14.8
23:50 6.8 6.7 99 1008.9 7.6 W 13.0 0.0 14.8
23:49 6.7 6.6 99 1008.7 9.8 W 13.0 0.0 14.8
23:48 6.7 6.6 99 1008.9 10.7 W 13.0 0.0 14.8
23:47 6.8 6.7 99 1008.8 9.8 W 13.0 0.0 14.8
23:45 6.7 6.6 99 1009.0 11.4 W 13.6 0.0 14.8
23:44 6.7 6.6 99 1008.8 13.0 NW 13.6 0.0 14.8
23:43 6.8 6.7 99 1008.9 9.8 W 13.6 0.0 14.8
23:42 6.8 6.7 99 1008.9 9.8 WSW 13.6 0.0 14.8
23:41 6.8 6.7 99 1008.8 8.3 W 13.6 0.0 14.8
23:40 6.7 6.6 99 1008.9 11.4 WSW 13.6 0.0 14.8
23:38 6.8 6.7 99 1008.8 8.3 W 13.6 0.0 14.8
23:37 6.8 6.7 99 1008.9 7.6 WSW 13.6 0.0 14.8
23:36 6.8 6.7 99 1008.8 13.6 W 13.6 0.0 14.8
23:34 6.8 6.7 99 1008.8 7.6 WSW 15.2 0.0 14.8
23:33 6.8 6.7 99 1008.8 10.7 WSW 15.2 0.0 14.8
23:32 6.8 6.7 99 1008.9 9.8 WSW 15.2 0.0 14.8
23:31 6.9 6.8 99 1008.9 9.8 W 15.2 0.0 14.8
23:29 6.8 6.7 99 1008.9 13.6 W 15.2 0.0 14.8
23:28 6.8 6.7 99 1008.8 13.0 NW 15.2 0.0 14.8
23:26 6.9 6.8 99 1008.8 11.4 WSW 15.2 0.0 14.8
23:25 6.9 6.8 99 1008.8 13.6 WSW 15.2 0.0 14.8
23:24 6.9 6.8 99 1008.9 13.0 W 13.0 0.0 14.8
23:22 6.9 6.8 99 1008.9 9.8 NW 12.1 0.0 14.8
23:19 6.9 6.8 99 1008.8 9.8 NW 13.0 0.0 14.8
23:17 6.9 6.8 99 1008.8 12.1 WSW 14.5 0.0 14.8
23:15 7.0 6.9 99 1009.0 9.2 WSW 14.5 0.0 14.8
23:14 7.0 6.9 99 1009.0 11.4 W 15.2 0.0 14.8
23:12 7.0 6.9 99 1009.1 12.1 WSW 15.2 0.0 14.8
23:11 7.1 7.0 99 1009.1 13.0 WSW 18.3 0.0 14.8
23:10 7.1 7.0 99 1009.1 13.0 W 18.3 0.0 14.8
23:08 7.1 7.0 99 1009.2 12.1 WSW 18.3 0.0 14.8
23:06 7.2 7.1 99 1009.2 12.1 NW 18.3 0.0 14.8
23:05 7.3 7.2 99 1009.2 15.2 W 18.3 0.0 14.8
23:04 7.3 7.2 99 1009.4 14.5 WSW 18.3 0.0 14.8
23:02 7.4 7.3 99 1009.3 18.3 WSW 18.3 0.0 14.8
23:00 7.4 7.3 99 1009.4 12.1 W 15.2 0.0 14.8
22:58 7.5 7.4 99 1009.3 12.1 WSW 15.2 0.0 14.8
22:57 7.4 7.3 99 1009.3 12.1 W 15.2 0.0 14.8
22:56 7.5 7.4 99 1009.1 13.6 WSW 15.2 0.0 14.8
22:54 7.5 7.4 99 1009.2 12.1 WSW 15.2 0.0 14.8
22:52 7.6 7.5 99 1009.2 15.2 WSW 15.2 0.0 14.8
22:50 7.6 7.5 99 1009.0 10.7 W 15.2 0.0 14.8
22:47 7.7 7.6 99 1009.2 9.8 W 19.0 0.0 14.8
22:46 7.6 7.5 99 1009.3 10.7 WSW 19.0 0.0 14.8
22:44 7.7 7.6 99 1009.2 9.2 W 19.0 0.0 14.8
22:41 7.7 7.6 99 1009.3 13.0 NW 19.0 0.0 14.8
22:39 7.7 7.6 99 1009.2 19.0 WSW 19.0 0.0 14.8
22:36 7.7 7.6 99 1009.2 9.8 NW 15.9 0.0 14.8
22:34 7.7 7.6 99 1009.1 15.9 W 15.9 0.0 14.8
22:32 7.8 7.7 99 1009.0 13.6 W 13.6 0.0 14.8
22:30 7.8 7.7 99 1009.1 11.4 NW 13.0 0.0 14.8
22:28 7.9 7.8 99 1009.0 7.6 WSW 13.0 0.0 14.8
22:26 7.9 7.8 99 1009.1 10.7 WSW 13.0 0.0 14.8
22:24 7.9 7.8 99 1009.2 13.0 W 13.6 0.0 14.8
22:22 8.0 7.9 99 1009.0 10.7 WSW 13.6 0.8 14.8
22:19 8.1 8.0 99 1009.2 11.4 WSW 13.6 0.8 14.8
22:17 8.1 8.0 99 1009.3 6.9 W 13.6 0.0 14.7
22:15 8.1 8.0 99 1009.2 9.8 W 13.6 0.8 14.7
22:13 8.2 8.1 99 1009.2 9.8 WSW 13.6 0.8 14.7
22:11 8.3 8.2 99 1009.0 9.8 NW 15.9 1.5 14.7
22:10 8.4 8.3 99 1009.2 13.0 NW 15.9 0.8 14.7
22:09 8.5 8.4 99 1009.1 9.8 WSW 15.9 1.5 14.7
22:07 8.6 8.5 99 1009.1 10.7 WSW 18.3 2.3 14.7
22:06 8.6 8.5 99 1009.1 9.2 WSW 19.0 2.3 14.6
22:05 8.7 8.6 99 1009.2 13.6 W 20.6 2.3 14.6
22:04 8.8 8.7 99 1009.0 13.0 W 20.6 1.5 14.6
22:03 8.8 8.7 99 1009.0 13.0 WSW 20.6 1.5 14.6
22:01 8.8 8.7 99 1009.0 14.5 WSW 22.1 0.8 14.5
22:00 8.8 8.7 99 1008.9 14.5 WSW 22.1 1.5 14.4
21:59 8.8 8.7 99 1008.8 14.5 WSW 22.1 1.5 14.4
21:58 8.8 8.7 99 1008.7 18.3 S 22.1 1.5 14.4
21:57 8.9 8.8 99 1008.9 19.0 S 22.8 0.8 14.4
21:56 8.8 8.7 99 1008.7 20.6 S 22.8 1.5 14.4
21:54 8.8 8.7 99 1008.7 19.7 S 23.5 2.3 14.3
21:53 8.8 8.7 99 1008.8 17.4 S 23.5 2.3 14.3
21:52 8.8 8.7 99 1008.8 15.9 NW 23.5 3.0 14.3
21:50 8.8 8.7 99 1008.9 16.8 S 26.6 3.8 14.2
21:49 8.8 8.7 99 1008.8 21.3 WSW 26.6 3.8 14.1
21:47 8.8 8.7 99 1008.9 22.8 WSW 26.6 4.5 14.0
21:46 8.7 8.6 99 1008.9 23.5 S 26.6 3.0 13.9
21:45 8.7 8.6 99 1008.9 23.5 S 26.6 3.0 13.9
21:43 8.7 8.6 99 1009.1 13.0 S 26.6 3.0 13.8
21:42 8.8 8.7 99 1008.9 15.9 WSW 26.6 1.5 13.7
21:41 8.8 8.7 99 1008.9 26.6 S 26.6 1.5 13.7
21:40 8.7 8.6 99 1009.1 21.3 S 28.9 0.8 13.6
21:39 8.7 8.6 99 1009.0 23.5 SE 28.9 1.5 13.6
21:38 8.7 8.6 99 1008.9 15.2 S 28.9 0.8 13.5
21:35 8.7 8.6 99 1008.9 16.8 S 28.9 1.5 13.5
21:34 8.7 8.6 99 1008.9 20.6 SE 28.9 0.8 13.5
21:33 8.7 8.6 99 1009.0 25.9 S 28.9 0.8 13.5
21:31 8.7 8.6 99 1009.1 28.9 WSW 28.9 0.8 13.5
21:30 8.7 8.6 99 1008.9 26.6 S 26.6 0.0 13.5
21:29 8.6 8.5 99 1008.9 13.6 S 25.9 0.0 13.4
21:27 8.7 8.6 99 1008.9 22.1 S 25.9 1.5 13.4
21:26 8.7 8.6 99 1009.0 15.9 S 25.9 1.5 13.4
21:25 8.7 8.6 99 1008.9 22.1 WSW 25.9 1.5 13.4
21:24 8.7 8.6 99 1009.1 19.7 S 25.9 1.5 13.4
21:23 8.6 8.5 99 1009.0 25.9 S 25.9 1.5 13.4
21:21 8.6 8.5 99 1009.1 23.5 SE 26.6 1.5 13.3
21:20 8.6 8.5 99 1009.1 16.8 S 26.6 1.5 13.3
21:19 8.7 8.6 99 1009.1 14.5 S 26.6 2.3 13.3
21:18 8.7 8.6 99 1009.2 24.4 SE 26.6 2.3 13.2
21:17 8.7 8.6 99 1009.0 18.3 S 26.6 2.3 13.2
21:15 8.6 8.5 99 1009.0 18.3 S 26.6 3.0 13.2
21:14 8.6 8.5 99 1009.2 19.0 S 26.6 3.0 13.1
21:12 8.6 8.5 99 1009.3 26.6 S 26.6 3.0 13.0
21:11 8.6 8.5 99 1009.1 17.4 S 28.2 2.3 13.0
21:10 8.6 8.5 99 1009.0 21.3 S 28.2 1.5 12.9
21:09 8.6 8.5 99 1009.2 25.1 S 28.2 1.5 12.9
21:07 8.6 8.5 99 1009.1 25.1 S 28.2 2.3 12.9
21:06 8.6 8.5 99 1009.2 19.0 S 28.2 3.8 12.8
21:05 8.6 8.5 99 1009.1 19.7 S 28.2 3.8 12.8
21:03 8.5 8.4 99 1009.1 26.6 S 28.2 3.8 12.7
21:02 8.5 8.4 99 1009.1 17.4 S 28.2 3.0 12.7
21:01 8.5 8.4 99 1009.1 28.2 WSW 28.2 2.3 12.6
21:00 8.5 8.4 99 1009.1 24.4 S 25.1 2.3 12.5
20:59 8.5 8.4 99 1009.0 24.4 S 25.1 2.3 12.5
20:58 8.5 8.4 99 1009.1 17.4 NW 21.3 1.5 12.3
20:57 8.5 8.4 99 1009.2 19.0 S 22.1 2.3 12.3
20:55 8.4 8.3 99 1009.2 15.9 WSW 22.8 2.3 12.3
20:54 8.5 8.4 99 1009.2 18.3 S 23.5 2.3 12.3
20:53 8.4 8.3 99 1009.3 19.0 S 23.5 2.3 12.2
20:52 8.5 8.4 99 1009.2 17.4 S 23.5 1.5 12.2
20:50 8.4 8.3 99 1009.3 21.3 S 23.5 1.5 12.1
20:49 8.4 8.3 99 1009.1 16.8 WSW 23.5 0.8 12.1
20:48 8.4 8.3 99 1009.2 19.0 S 24.4 1.5 12.0
20:47 8.4 8.3 99 1009.2 22.1 SE 24.4 1.5 12.0
20:46 8.4 8.3 99 1009.3 22.8 S 24.4 0.8 12.0
20:45 8.4 8.3 99 1009.5 23.5 S 24.4 1.5 12.0
20:44 8.4 8.3 99 1009.6 21.3 S 24.4 2.3 12.0
20:43 8.4 8.3 99 1009.2 22.8 S 24.4 2.3 11.9
20:42 8.3 8.2 99 1009.4 20.6 SE 24.4 3.0 11.9
20:40 8.3 8.2 99 1009.4 23.5 S 24.4 5.3 11.8
20:39 8.3 8.2 99 1009.5 22.1 S 24.4 5.3 11.8
20:38 8.3 8.2 99 1009.5 24.4 S 24.4 5.3 11.8
20:37 8.3 8.2 99 1009.5 19.7 S 23.5 4.5 11.7
20:36 8.3 8.2 99 1009.5 20.6 SE 23.5 4.5 11.5
20:35 8.2 8.1 99 1009.6 16.8 S 23.5 4.5 11.5
20:34 8.2 8.1 99 1009.7 18.3 S 23.5 3.8 11.3
20:33 8.2 8.1 99 1009.7 19.7 SE 23.5 4.5 11.3
20:31 8.2 8.1 99 1009.9 14.5 S 20.6 6.0 11.2
20:30 8.2 8.1 99 1009.8 18.3 S 20.6 4.5 11.0
20:28 8.2 8.1 99 1009.6 19.7 S 22.1 5.3 10.9
20:26 8.2 8.1 99 1009.8 14.5 S 30.4 3.0 10.6
20:23 8.2 8.1 99 1009.8 19.0 SE 30.4 2.3 10.5
20:22 8.2 8.1 99 1009.9 19.0 SW 30.4 2.3 10.5
20:20 8.2 8.1 99 1009.8 18.3 WSW 30.4 2.3 10.4
20:19 8.2 8.1 99 1009.9 22.1 SE 30.4 0.8 10.3
20:17 8.2 8.1 99 1009.9 24.4 S 30.4 1.5 10.3
20:15 8.2 8.1 99 1009.9 22.8 S 27.3 0.8 10.2
20:14 8.2 8.1 99 1009.7 25.1 SE 27.3 1.5 10.2
20:12 8.1 8.0 99 1010.0 24.4 S 27.3 1.5 10.1
20:10 8.1 8.0 99 1010.1 20.6 S 31.1 2.3 10.1
20:09 8.1 8.0 99 1010.0 20.6 SE 31.1 2.3 10.1
20:08 8.1 8.0 99 1010.0 20.6 S 31.1 3.8 10.1
20:06 8.1 8.0 99 1010.1 27.3 S 31.1 5.3 10.0
20:05 8.1 8.0 99 1010.1 19.0 S 31.1 4.5 10.0
20:04 8.1 8.0 99 1010.0 19.7 S 31.1 4.5 9.9
20:02 8.1 8.0 99 1010.0 25.1 SE 31.1 3.8 9.8
20:01 8.0 7.9 99 1010.2 31.1 S 31.1 3.0 9.7
20:00 8.0 7.9 99 1010.2 20.6 NNE 23.5 4.5 9.6
19:59 8.0 7.9 99 1010.0 20.6 NNE 23.5 4.5 9.6
19:58 8.0 7.9 99 1010.0 23.5 S 23.5 4.5 9.5
19:56 8.0 7.9 99 1010.2 17.4 SE 23.5 5.3 9.3
19:55 7.9 7.8 99 1010.1 23.5 S 23.5 3.8 9.3
19:54 7.9 7.8 99 1010.3 19.0 S 22.8 3.8 9.2
19:53 7.9 7.8 99 1010.2 17.4 S 22.8 4.5 9.1
19:52 8.0 7.9 99 1010.2 19.0 S 26.6 3.0 9.1
19:50 7.9 7.8 99 1010.2 15.9 S 26.6 3.0 8.9
19:49 7.9 7.8 99 1010.3 22.8 S 26.6 3.0 8.8
19:47 7.9 7.8 99 1010.2 18.3 S 26.6 3.0 8.8
19:46 7.9 7.8 99 1010.6 19.7 S 26.6 3.0 8.7
19:45 7.9 7.8 99 1010.3 22.1 S 26.6 3.0 8.6
19:43 7.8 7.7 99 1010.5 22.1 SE 26.6 3.0 8.5
19:42 7.9 7.8 99 1010.5 26.6 SE 26.6 2.3 8.5
19:41 7.8 7.7 99 1010.5 20.6 S 25.9 2.3 8.4
19:40 7.9 7.8 99 1010.4 23.5 S 25.9 3.0 8.4
19:38 7.8 7.7 99 1010.4 16.8 S 25.9 1.5 8.3
19:37 7.9 7.8 99 1010.4 19.7 S 25.9 3.0 8.3
19:36 7.9 7.8 99 1010.4 19.7 S 25.9 2.3 8.2
19:35 7.9 7.8 99 1010.2 16.8 S 25.9 1.5 8.2
19:34 7.8 7.7 99 1010.2 15.9 S 25.9 2.3 8.1
19:33 7.9 7.8 99 1010.5 25.9 S 25.9 3.0 8.1
19:31 7.9 7.8 99 1010.4 23.5 S 25.1 2.3 8.0
19:28 7.9 7.8 99 1010.5 13.6 S 25.1 1.5 7.9
19:26 7.9 7.8 99 1010.6 24.4 SE 24.4 1.5 7.8
19:23 7.9 7.8 99 1010.6 18.3 S 22.8 3.0 7.7
19:21 7.9 7.8 99 1010.5 22.8 SE 22.8 3.0 7.7
19:18 7.9 7.8 99 1010.8 19.7 S 22.1 3.8 7.5
19:15 7.8 7.7 99 1010.6 22.1 S 22.1 4.5 7.4
19:12 7.8 7.7 99 1010.8 18.3 S 22.1 3.8 7.1
19:09 7.9 7.8 99 1010.9 22.1 S 22.1 11.3 7.0
19:06 7.9 7.8 99 1010.9 21.3 WSW 22.1 7.6 6.7
19:03 7.8 7.7 99 1011.0 15.9 S 25.9 1.5 6.0
19:00 7.8 7.7 99 1011.1 15.9 S 25.9 4.5 6.0
18:57 7.9 7.8 99 1011.0 21.3 S 25.9 5.3 5.8
18:55 7.9 7.8 99 1011.1 22.8 S 25.9 4.5 5.6
18:53 7.9 7.8 99 1011.2 25.9 S 25.9 3.8 5.4
18:51 7.9 7.8 99 1011.1 19.0 S 23.5 3.8 5.4
18:49 7.9 7.8 99 1011.0 19.7 S 23.5 2.3 5.2
18:47 7.9 7.8 99 1011.1 22.8 S 23.5 1.5 5.1
18:45 7.9 7.8 99 1010.9 19.0 S 23.5 1.5 5.0
18:43 7.9 7.8 99 1011.0 20.6 S 23.5 1.5 5.0
18:42 7.9 7.8 99 1011.0 21.3 SE 23.5 2.3 5.0
18:41 7.9 7.8 99 1011.0 23.5 S 23.5 2.3 5.0
18:40 7.9 7.8 99 1011.2 19.7 S 22.8 2.3 4.9
18:39 7.9 7.8 99 1011.0 21.3 S 26.6 2.3 4.9
18:37 7.9 7.8 99 1011.0 14.5 WSW 26.6 0.8 4.9
18:36 7.9 7.8 99 1011.1 22.1 SE 26.6 0.8 4.8
18:35 7.9 7.8 99 1011.0 16.8 S 26.6 0.8 4.7
18:34 7.9 7.8 99 1011.0 15.9 S 26.6 0.8 4.7
18:33 7.9 7.8 99 1011.1 16.8 S 26.6 0.8 4.7
18:32 7.9 7.8 99 1011.1 15.2 S 26.6 0.8 4.7
18:31 7.9 7.8 99 1011.1 22.1 S 26.6 0.8 4.7
18:30 7.9 7.8 99 1011.1 26.6 S 26.6 0.8 4.7
18:28 7.9 7.8 99 1011.1 21.3 S 24.4 0.8 4.7
18:27 7.9 7.8 99 1011.1 17.4 S 24.4 0.8 4.7
18:26 7.9 7.8 99 1011.1 20.6 S 24.4 1.5 4.7
18:25 7.9 7.8 99 1011.2 16.8 S 24.4 0.8 4.7
18:24 7.9 7.8 99 1010.9 15.9 S 24.4 0.8 4.6
18:23 7.9 7.8 99 1011.2 15.2 S 24.4 0.8 4.6
18:22 7.9 7.8 99 1011.1 24.4 S 24.4 0.8 4.6
18:21 7.9 7.8 99 1011.2 16.8 S 21.3 0.0 4.5
18:19 7.9 7.8 99 1011.2 20.6 SE 21.3 0.8 4.5
18:18 7.9 7.8 99 1011.2 20.6 S 21.3 0.8 4.5
18:16 7.9 7.8 99 1011.2 15.9 S 21.3 0.8 4.5
18:14 7.9 7.8 99 1011.2 21.3 W 21.3 0.0 4.5
18:13 7.9 7.8 99 1011.3 19.7 W 20.6 0.8 4.5
18:11 7.9 7.8 99 1011.4 14.5 S 20.6 0.8 4.5
18:09 7.9 7.8 99 1011.3 14.5 S 20.6 0.8 4.5
18:08 7.9 7.8 99 1011.3 15.9 SE 20.6 0.8 4.4
18:07 7.9 7.8 99 1011.4 20.6 S 21.3 0.8 4.4
18:06 7.9 7.8 99 1011.4 16.8 S 21.3 0.8 4.4
18:05 7.9 7.8 99 1011.4 20.6 S 21.3 0.8 4.4
18:04 7.9 7.8 99 1011.5 15.9 S 21.3 0.8 4.4
18:03 7.9 7.8 99 1011.4 15.2 S 21.3 0.0 4.3
18:02 7.9 7.8 99 1011.5 15.2 S 22.1 0.0 4.3
18:01 7.9 7.8 99 1011.4 15.2 S 22.1 0.0 4.3
17:59 7.9 7.8 99 1011.5 15.2 S 22.1 0.0 4.3
17:58 7.9 7.8 99 1011.5 17.4 S 22.1 0.0 4.3
17:57 7.9 7.8 99 1011.7 21.3 S 22.1 0.0 4.3
17:56 8.0 7.9 99 1011.6 13.6 S 22.1 0.0 4.3
17:55 7.9 7.8 99 1011.8 14.5 S 22.1 0.8 4.3
17:54 7.9 7.8 99 1011.5 15.2 SE 22.1 0.8 4.3
17:53 7.9 7.8 99 1011.8 19.0 SE 22.1 0.8 4.3
17:52 7.9 7.8 99 1011.7 22.1 SW 23.5 0.8 4.3
17:51 7.9 7.8 99 1011.8 16.8 S 23.5 1.5 4.3
17:50 7.9 7.8 99 1011.7 20.6 S 23.5 0.8 4.3
17:49 7.9 7.8 99 1011.8 22.1 S 23.5 0.8 4.3
17:48 7.9 7.8 99 1011.7 19.7 S 23.5 0.8 4.3
17:47 7.9 7.8 99 1011.7 16.8 S 24.4 0.8 4.3
17:46 7.9 7.8 99 1011.7 16.8 S 24.4 0.0 4.2
17:45 7.9 7.8 99 1011.8 20.6 WSW 24.4 0.0 4.2
17:43 7.9 7.8 99 1011.7 19.7 S 24.4 0.8 4.2
17:42 7.9 7.8 99 1011.9 23.5 S 24.4 0.8 4.2
17:41 7.9 7.8 99 1011.9 21.3 S 24.4 0.8 4.2
17:40 7.9 7.8 99 1011.9 16.8 S 24.4 0.8 4.2
17:39 7.9 7.8 99 1011.9 17.4 S 24.4 0.8 4.2
17:38 7.9 7.8 99 1011.9 22.1 WSW 24.4 0.0 4.2
17:37 7.9 7.8 99 1012.0 24.4 S 24.4 0.0 4.2
17:36 7.9 7.8 99 1012.0 13.6 S 20.6 0.8 4.2
17:35 7.9 7.8 99 1012.0 20.6 S 22.8 0.8 4.2
17:34 7.9 7.8 99 1012.1 15.9 S 22.8 0.8 4.2
17:33 7.9 7.8 99 1012.1 15.9 S 22.8 0.8 4.2
17:32 7.9 7.8 99 1012.2 19.7 S 22.8 0.8 4.2
17:31 7.9 7.8 99 1011.8 18.3 S 22.8 0.0 4.2
17:30 7.9 7.8 99 1012.0 13.6 S 25.1 0.0 4.1
17:29 7.9 7.8 99 1012.1 19.7 S 25.1 0.0 4.1
17:28 7.9 7.8 99 1012.2 19.0 S 25.1 0.0 4.1
17:27 7.9 7.8 99 1012.1 19.0 S 25.1 0.0 4.1
17:26 7.9 7.8 99 1012.1 18.3 SE 25.1 0.0 4.1
17:24 7.9 7.8 99 1012.1 17.4 S 25.1 0.0 4.1
17:23 7.9 7.8 99 1012.0 15.2 S 25.1 0.0 4.1
17:22 7.9 7.8 99 1012.2 17.4 S 25.1 0.0 4.1
17:20 7.9 7.8 99 1012.1 14.5 S 22.1 0.8 4.1
17:19 8.0 7.9 99 1012.3 16.8 S 22.1 0.8 4.1
17:18 8.0 7.9 99 1012.2 16.8 WNW 22.1 0.8 4.1
17:17 7.9 7.8 99 1012.2 15.9 NNW 22.1 0.8 4.1
17:16 7.9 7.8 99 1012.2 15.2 S 22.1 0.0 4.0
17:15 8.0 7.9 99 1012.0 15.2 S 22.1 0.0 4.0
17:13 7.9 7.8 99 1012.2 15.2 S 22.1 0.0 4.0
17:12 7.9 7.8 99 1012.2 19.0 SE 22.1 0.0 4.0
17:11 8.0 7.9 99 1012.3 19.7 S 22.1 0.0 4.0
17:10 7.9 7.8 99 1012.4 20.6 S 21.3 0.0 4.0
17:09 7.9 7.8 99 1012.3 15.2 S 21.3 0.0 4.0
17:08 7.9 7.8 99 1012.3 15.9 S 22.1 0.0 4.0
17:06 8.0 7.9 99 1012.4 16.8 S 22.1 0.0 4.0
17:05 8.0 7.9 99 1012.3 17.4 S 22.1 0.0 4.0
17:04 8.0 7.9 99 1012.3 13.6 S 22.1 0.0 4.0
17:03 8.0 7.9 99 1012.3 18.3 S 22.1 0.0 4.0
17:02 8.0 7.9 99 1012.3 19.7 S 22.1 0.0 4.0
17:00 8.0 7.9 99 1012.5 15.2 S 22.1 0.8 4.0
16:59 8.0 7.9 99 1012.2 15.2 S 22.1 0.8 4.0
16:58 8.0 7.9 99 1012.5 17.4 S 22.1 0.8 4.0
16:57 8.0 7.9 99 1012.5 18.3 S 22.1 0.8 4.0
16:56 8.0 7.9 99 1012.6 20.6 S 22.1 0.0 4.0
16:54 8.0 7.9 99 1012.6 19.7 S 22.1 0.0 4.0
16:53 8.0 7.9 99 1012.6 21.3 N 22.1 0.0 4.0
16:52 8.0 7.9 99 1012.5 19.7 S 22.1 0.8 4.0
16:51 8.0 7.9 99 1012.7 19.7 SE 22.1 0.8 4.0
16:50 8.0 7.9 99 1012.7 18.3 S 22.1 0.8 4.0
16:49 8.0 7.9 99 1012.6 18.3 W 22.1 0.8 4.0
16:48 8.0 7.9 99 1012.8 22.1 S 22.8 1.5 4.0
16:47 8.0 7.9 99 1012.9 19.0 S 22.8 0.8 3.9
16:46 8.0 7.9 99 1012.9 15.9 S 22.8 0.8 3.9
16:45 8.0 7.9 99 1013.0 18.3 S 22.8 0.8 3.9
16:44 8.0 7.9 99 1012.8 16.8 WSW 22.8 0.8 3.9
16:43 8.0 7.9 99 1012.8 16.8 NW 22.8 0.0 3.8
16:42 8.0 7.9 99 1012.8 19.0 WSW 22.8 0.0 3.8
16:41 8.0 7.9 99 1012.8 20.6 S 22.8 0.0 3.8
16:40 8.0 7.9 99 1012.9 22.1 S 22.8 0.0 3.8
16:39 8.0 7.9 99 1012.7 22.8 WSW 22.8 0.0 3.8
16:38 8.0 7.9 99 1012.8 16.8 S 22.8 0.0 3.8
16:37 8.0 7.9 99 1012.9 18.3 S 22.8 0.0 3.8
16:36 8.0 7.9 99 1013.0 22.1 S 22.8 0.0 3.8
16:35 8.0 7.9 99 1013.0 19.7 SE 22.8 0.8 3.8
16:34 8.0 7.9 99 1013.0 22.8 S 22.8 0.8 3.8
16:33 8.0 7.9 99 1012.9 16.8 WSW 19.0 0.8 3.8
16:32 7.9 7.8 99 1013.0 16.8 S 19.0 0.8 3.8
16:31 8.0 7.9 99 1013.1 15.2 S 19.0 1.5 3.8
16:29 7.9 7.8 99 1012.9 19.0 S 21.3 0.8 3.8
16:28 7.9 7.8 99 1013.0 18.3 S 21.3 0.8 3.8
16:27 7.9 7.8 99 1013.1 19.0 S 21.3 0.8 3.8
16:26 7.9 7.8 99 1013.1 19.0 S 21.3 0.0 3.8
16:25 7.9 7.8 99 1013.1 16.8 S 21.3 0.0 3.7
16:24 7.9 7.8 99 1013.0 18.3 S 21.3 0.8 3.7
16:23 7.9 7.8 99 1013.2 15.9 S 21.3 0.8 3.7
16:22 7.9 7.8 99 1013.2 16.8 S 21.3 0.8 3.7
16:21 7.9 7.8 99 1013.2 19.0 S 21.3 0.8 3.7
16:20 8.0 7.9 99 1013.3 21.3 NE 28.9 0.8 3.7
16:18 7.9 7.8 99 1013.2 19.0 S 28.9 0.0 3.7
16:17 7.9 7.8 99 1013.3 19.7 NW 28.9 0.8 3.7
16:15 7.9 7.8 99 1013.3 14.5 S 28.9 0.8 3.7
16:14 7.9 7.8 99 1013.3 18.3 SE 28.9 0.8 3.7
16:12 8.0 7.9 99 1013.3 18.3 S 28.9 0.0 3.6
16:11 7.9 7.8 99 1013.4 21.3 NW 28.9 0.8 3.6
16:09 8.0 7.9 99 1013.4 19.7 S 20.6 0.8 3.6
16:08 8.0 7.9 99 1013.5 15.2 S 20.6 1.5 3.6
16:07 8.0 7.9 99 1013.4 19.7 S 20.6 1.5 3.6
16:06 8.0 7.9 99 1013.4 18.3 WSW 20.6 0.8 3.5
16:05 8.0 7.9 99 1013.2 17.4 S 20.6 0.8 3.5
16:04 8.0 7.9 99 1013.3 14.5 S 22.8 0.8 3.5
16:03 8.0 7.9 99 1013.6 18.3 S 22.8 0.0 3.5
16:02 8.0 7.9 99 1013.6 13.6 S 22.8 0.0 3.5
16:01 7.9 7.8 99 1013.6 20.6 S 22.8 0.8 3.5
16:00 8.0 7.9 99 1013.5 16.8 WNW 22.8 0.8 3.5
15:59 8.0 7.9 99 1013.7 16.8 WNW 22.8 0.8 3.5
15:57 7.9 7.8 99 1013.7 17.4 S 22.8 1.5 3.5
15:56 7.9 7.8 99 1013.7 14.5 S 22.8 0.8 3.4
15:55 7.9 7.8 99 1013.6 22.8 S 22.8 0.8 3.4
15:54 7.9 7.8 99 1013.6 16.8 WSW 19.0 0.8 3.4
15:53 7.9 7.8 99 1013.5 15.9 S 19.7 0.8 3.4
15:52 7.9 7.8 99 1013.6 15.9 S 19.7 0.0 3.3
15:51 7.9 7.8 99 1013.7 18.3 S 19.7 0.0 3.3
15:50 7.9 7.8 99 1013.6 18.3 S 19.7 0.0 3.3
15:49 7.9 7.8 99 1013.7 18.3 WSW 19.7 0.0 3.3
15:48 7.9 7.8 99 1013.6 15.9 S 19.7 0.0 3.3
15:47 7.9 7.8 99 1013.7 14.5 SE 20.6 0.8 3.3
15:45 7.9 7.8 99 1013.7 17.4 S 20.6 0.8 3.3
15:44 7.9 7.8 99 1013.7 15.9 S 20.6 1.5 3.3
15:43 7.9 7.8 99 1013.7 19.7 S 20.6 1.5 3.3
15:42 7.9 7.8 99 1013.8 17.4 SE 20.6 0.8 3.3
15:41 7.9 7.8 99 1013.7 17.4 S 20.6 1.5 3.3
15:40 7.9 7.8 99 1013.7 13.0 S 20.6 1.5 3.3
15:39 7.9 7.8 99 1013.8 16.8 S 20.6 0.8 3.2
15:38 7.9 7.8 99 1013.9 18.3 S 20.6 0.8 3.2
15:37 7.9 7.8 99 1013.7 20.6 W 20.6 1.5 3.2
15:36 7.9 7.8 99 1013.7 17.4 W 19.0 0.8 3.1
15:35 7.9 7.8 99 1013.8 15.9 S 19.7 0.8 3.1
15:33 7.9 7.8 99 1013.9 15.2 WSW 19.7 0.8 3.1
15:32 7.9 7.8 99 1013.7 15.9 S 19.7 0.8 3.1
15:31 7.9 7.8 99 1013.8 15.9 SE 19.7 0.8 3.1
15:30 7.9 7.8 99 1013.8 15.9 S 19.7 1.5 3.1
15:29 7.9 7.8 99 1013.8 19.0 SE 19.7 1.5 3.1
15:28 7.9 7.8 99 1013.9 15.9 S 19.7 1.5 3.1
15:27 7.9 7.8 99 1013.9 15.9 S 19.7 0.8 3.0
15:26 7.9 7.8 99 1014.1 16.8 SE 23.5 0.8 3.0
15:25 7.9 7.8 99 1014.0 14.5 S 23.5 0.0 3.0
15:24 7.9 7.8 99 1014.1 13.0 S 23.5 0.8 3.0
15:23 7.8 7.7 99 1014.0 15.2 SE 23.5 0.8 3.0
15:22 7.8 7.7 99 1014.0 18.3 S 23.5 1.5 3.0
15:21 7.9 7.8 99 1014.0 11.4 S 23.5 1.5 3.0
15:20 7.8 7.7 99 1014.0 14.5 N 23.5 1.5 3.0
15:19 7.8 7.7 99 1014.0 15.9 S 23.5 1.5 2.9
15:18 7.8 7.7 99 1014.0 15.9 S 23.5 1.5 2.9
15:17 7.8 7.7 99 1014.1 23.5 SE 23.5 0.8 2.8
15:16 7.8 7.7 99 1014.0 21.3 N 21.3 1.5 2.8
15:15 7.8 7.7 99 1014.1 19.7 NNE 21.3 1.5 2.8
15:14 7.8 7.7 99 1014.0 17.4 S 21.3 0.8 2.8
15:12 7.8 7.7 99 1014.2 9.8 W 21.3 0.8 2.8
15:11 7.8 7.7 99 1014.1 15.2 S 21.3 0.0 2.7
15:10 7.8 7.7 99 1014.1 13.0 S 21.3 0.0 2.7
15:09 7.8 7.7 99 1014.2 16.8 SW 21.3 0.0 2.7
15:08 7.8 7.7 99 1014.2 19.0 S 21.3 0.0 2.7
15:07 7.8 7.7 99 1014.2 21.3 N 21.3 0.0 2.7
15:06 7.8 7.7 99 1014.3 16.8 SE 19.7 0.0 2.7
15:05 7.8 7.7 99 1014.2 15.2 W 19.7 0.0 2.7
15:04 7.8 7.7 99 1014.2 17.4 S 19.7 0.0 2.7
15:03 7.8 7.7 99 1014.3 19.0 S 19.7 0.0 2.7
15:02 7.8 7.7 99 1014.3 13.6 SE 19.7 0.0 2.7
15:01 7.8 7.7 99 1014.4 15.2 S 19.7 0.8 2.7
15:00 7.8 7.7 99 1014.3 15.2 S 19.7 0.8 2.7
14:59 7.8 7.7 99 1014.3 15.2 S 19.7 0.8 2.7
14:57 7.8 7.7 99 1014.4 15.2 S 18.3 0.8 2.7
14:56 7.8 7.7 99 1014.4 15.2 S 18.3 0.0 2.6
14:55 7.8 7.7 99 1014.4 15.2 S 18.3 0.0 2.6
14:54 7.8 7.7 99 1014.4 15.9 S 18.3 0.0 2.6
14:53 7.8 7.7 99 1014.3 12.1 S 18.3 0.0 2.6
14:52 7.8 7.7 99 1014.4 15.9 S 18.3 0.0 2.6
14:51 7.8 7.7 99 1014.4 18.3 WSW 19.7 0.0 2.6
14:50 7.8 7.7 99 1014.4 11.4 SE 19.7 0.0 2.6
14:49 7.8 7.7 99 1014.3 15.2 S 19.7 0.0 2.6
14:48 7.8 7.7 99 1014.5 17.4 S 19.7 0.0 2.6
14:47 7.8 7.7 99 1014.4 12.1 SE 19.7 0.0 2.6
14:46 7.8 7.7 99 1014.4 14.5 S 20.6 0.0 2.6
14:44 7.8 7.7 99 1014.5 13.0 S 21.3 0.0 2.6
14:43 7.7 7.6 99 1014.4 13.0 S 21.3 0.0 2.6
14:42 7.8 7.7 99 1014.5 18.3 S 22.1 0.0 2.6
14:41 7.8 7.7 99 1014.6 19.7 S 23.5 0.0 2.6
14:40 7.8 7.7 99 1014.4 16.8 SW 23.5 0.0 2.6
14:39 7.8 7.7 99 1014.5 17.4 SE 23.5 0.0 2.6
14:38 7.8 7.7 99 1014.5 18.3 S 23.5 0.0 2.6
14:37 7.8 7.7 99 1014.6 13.6 S 23.5 0.0 2.6
14:36 7.8 7.7 99 1014.5 20.6 S 23.5 0.0 2.6
14:34 7.8 7.7 99 1014.6 18.3 SE 23.5 0.0 2.6
14:33 7.8 7.7 99 1014.6 19.0 S 23.5 0.0 2.6
14:32 7.8 7.7 99 1014.4 23.5 S 23.5 0.0 2.6
14:31 7.9 7.8 99 1014.7 21.3 S 22.1 0.0 2.6
14:30 7.9 7.8 99 1014.5 17.4 SE 22.1 0.0 2.6
14:29 7.9 7.8 99 1014.6 15.9 S 22.1 0.0 2.6
14:28 7.9 7.8 99 1014.7 19.0 S 22.1 0.0 2.6
14:27 7.9 7.8 99 1014.6 16.8 S 22.1 0.0 2.6
14:26 7.9 7.8 99 1014.7 22.1 SE 22.1 0.0 2.6
14:25 7.9 7.8 99 1014.5 19.7 S 19.7 0.0 2.6
14:24 7.9 7.8 99 1014.7 15.2 NE 19.7 0.0 2.6
14:23 7.9 7.8 99 1014.6 13.6 S 19.7 0.0 2.6
14:22 7.9 7.8 99 1014.6 18.3 S 19.7 0.0 2.6
14:21 7.9 7.8 99 1014.7 12.1 WSW 19.7 0.0 2.6
14:20 7.9 7.8 99 1014.8 17.4 S 19.7 0.0 2.6
14:18 7.9 7.8 99 1014.7 12.1 S 19.7 0.0 2.6
14:17 7.9 7.8 99 1014.7 13.0 S 19.7 0.0 2.6
14:16 7.9 7.8 99 1014.7 16.8 S 19.7 0.0 2.6
14:14 7.9 7.8 99 1014.9 15.9 S 18.3 0.0 2.6
14:13 7.9 7.8 99 1015.0 15.9 SE 18.3 0.0 2.6
14:12 7.9 7.8 99 1014.8 15.2 S 18.3 0.0 2.6
14:10 7.9 7.8 99 1014.9 18.3 W 18.3 0.8 2.6
14:09 7.9 7.8 99 1014.8 14.5 S 16.8 0.8 2.6
14:08 7.9 7.8 99 1014.8 16.8 S 16.8 0.8 2.6
14:07 7.9 7.8 99 1015.1 16.8 S 16.8 0.8 2.6
14:06 7.9 7.8 99 1014.8 13.6 WSW 16.8 0.0 2.6
14:05 7.9 7.8 99 1015.0 13.0 S 16.8 0.0 2.6
14:04 7.9 7.8 99 1014.9 13.0 S 16.8 0.0 2.6
14:03 7.9 7.8 99 1015.1 13.0 S 19.7 0.0 2.6
14:01 7.9 7.8 99 1015.2 13.0 S 19.7 0.0 2.6
14:00 7.9 7.8 99 1015.0 13.0 S 19.7 0.0 2.6
13:59 7.9 7.8 99 1015.1 13.0 S 22.1 0.0 2.6
13:58 8.0 7.9 99 1015.2 13.6 S 22.1 0.0 2.6
13:57 8.0 7.9 99 1015.1 13.6 SE 22.8 0.0 2.6
13:56 8.0 7.9 99 1015.2 15.9 S 22.8 0.0 2.6
13:55 8.0 7.9 99 1015.3 16.8 S 22.8 0.0 2.6
13:54 8.0 7.9 99 1015.2 11.4 WSW 22.8 0.0 2.6
13:53 8.0 7.9 99 1015.2 19.7 SE 22.8 0.0 2.6
13:52 8.0 7.9 99 1015.3 15.2 WSW 22.8 0.0 2.6
13:51 8.0 7.9 99 1015.2 19.0 S 22.8 0.0 2.6
13:50 8.0 7.9 99 1015.3 22.1 S 22.8 0.0 2.6
13:49 8.0 7.9 99 1015.3 17.4 S 22.8 0.0 2.6
13:48 8.0 7.9 99 1015.4 22.8 SE 22.8 0.0 2.6
13:47 8.0 7.9 99 1015.3 19.0 S 19.7 0.0 2.6
13:46 7.9 7.8 99 1015.3 19.0 E 19.7 0.0 2.6
13:45 8.0 7.9 99 1015.3 13.6 S 19.7 0.8 2.6
13:44 7.9 7.8 99 1015.4 10.7 S 19.7 0.8 2.6
13:43 7.9 7.8 99 1015.4 13.0 S 19.7 0.8 2.6
13:42 8.0 7.9 99 1015.3 10.7 S 19.7 0.8 2.6
13:41 7.9 7.8 99 1015.4 14.5 S 19.7 0.8 2.6
13:39 7.9 7.8 99 1015.5 14.5 SE 18.3 0.0 2.5
13:38 7.9 7.8 99 1015.4 16.8 S 18.3 0.0 2.5
13:37 7.9 7.8 99 1015.5 14.5 S 18.3 0.0 2.5
13:36 7.9 7.8 99 1015.5 13.0 S 18.3 0.0 2.5
13:35 7.9 7.8 99 1015.5 12.1 SW 18.3 0.0 2.5
13:34 7.9 7.8 99 1015.5 13.6 S 18.3 0.0 2.5
13:33 7.9 7.8 99 1015.6 13.6 S 18.3 0.8 2.5
13:32 7.9 7.8 99 1015.6 13.0 S 18.3 0.8 2.5
13:31 7.9 7.8 99 1015.7 18.3 S 18.3 0.8 2.5
13:30 7.9 7.8 99 1015.6 12.1 S 18.3 0.8 2.5
13:29 7.9 7.8 99 1015.6 9.8 S 18.3 0.8 2.5
13:28 7.9 7.8 99 1015.7 14.5 S 22.1 0.0 2.5
13:27 7.9 7.8 99 1015.6 17.4 S 22.1 0.0 2.5
13:26 7.9 7.8 99 1015.7 13.6 S 22.1 0.0 2.5
13:25 7.9 7.8 99 1015.7 15.9 S 22.1 0.0 2.5
13:24 7.9 7.8 99 1015.8 15.2 S 22.1 0.0 2.5
13:23 7.9 7.8 99 1015.8 13.6 S 22.1 0.8 2.5
13:22 7.9 7.8 99 1015.7 18.3 S 22.1 0.8 2.5
13:21 7.9 7.8 99 1015.8 16.8 S 22.1 0.8 2.5
13:20 7.9 7.8 99 1015.7 15.9 S 22.1 0.8 2.5
13:19 7.9 7.8 99 1015.9 22.1 S 22.1 0.8 2.5
13:18 7.9 7.8 99 1015.8 16.8 S 16.8 0.0 2.5
13:17 7.9 7.8 99 1015.7 12.1 S 15.9 0.8 2.4
13:16 7.9 7.8 99 1016.0 14.5 S 15.9 0.8 2.4
13:15 7.9 7.8 99 1015.8 15.2 S 16.8 0.8 2.4
13:14 7.9 7.8 99 1015.8 15.9 WSW 16.8 0.8 2.4
13:13 7.9 7.8 99 1015.9 14.5 WSW 16.8 0.8 2.4
13:12 7.9 7.8 99 1016.1 13.0 S 16.8 0.0 2.3
13:11 7.9 7.8 99 1015.9 13.0 S 16.8 0.0 2.3
13:10 7.9 7.8 99 1016.1 13.6 S 16.8 0.0 2.3
13:09 7.9 7.8 99 1016.0 11.4 S 16.8 0.0 2.3
13:08 8.0 7.9 99 1015.9 15.2 SE 16.8 0.0 2.3
13:07 8.0 7.9 99 1016.1 12.1 S 18.3 0.0 2.3
13:06 8.0 7.9 99 1016.1 11.4 S 18.3 0.0 2.3
13:04 7.9 7.8 99 1015.9 13.0 S 18.3 0.0 2.3
13:03 7.9 7.8 99 1016.1 13.0 S 18.3 0.0 2.3
13:02 7.9 7.8 99 1016.1 13.0 S 18.3 0.0 2.3
13:01 7.9 7.8 99 1016.0 13.0 S 18.3 0.0 2.3
13:00 7.9 7.8 99 1016.1 13.0 S 19.0 0.0 2.3
12:59 7.9 7.8 99 1016.1 13.0 S 19.0 0.0 2.3
12:58 7.9 7.8 99 1016.2 15.9 S 20.6 0.0 2.3
12:57 7.9 7.8 99 1016.2 18.3 S 20.6 0.0 2.3
12:56 7.9 7.8 99 1016.1 16.8 S 20.6 0.0 2.3
12:55 7.9 7.8 99 1016.1 14.5 S 22.8 0.0 2.3
12:54 7.9 7.8 99 1016.2 18.3 S 22.8 0.0 2.3
12:53 7.9 7.8 99 1016.2 17.4 S 22.8 0.0 2.3
12:52 7.9 7.8 99 1016.2 18.3 S 22.8 0.0 2.3
12:51 7.9 7.8 99 1016.4 19.0 S 22.8 0.0 2.3
12:50 7.9 7.8 99 1016.3 16.8 S 22.8 0.0 2.3
12:49 7.9 7.8 99 1016.4 17.4 W 22.8 0.0 2.3
12:48 7.9 7.8 99 1016.3 20.6 WSW 22.8 0.0 2.3
12:47 8.0 7.9 99 1016.3 18.3 S 22.8 0.0 2.3
12:46 8.0 7.9 99 1016.3 19.7 S 22.8 0.0 2.3
12:45 8.0 7.9 99 1016.5 22.8 S 22.8 0.0 2.3
12:44 8.0 7.9 99 1016.5 20.6 NNW 21.3 0.0 2.3
12:43 8.0 7.9 99 1016.4 15.9 SE 21.3 0.0 2.3
12:42 8.0 7.9 99 1016.4 17.4 S 21.3 0.0 2.3
12:41 8.0 7.9 99 1016.5 13.6 S 21.3 0.0 2.3
12:40 7.9 7.8 99 1016.7 18.3 SE 21.3 0.0 2.3
12:39 8.0 7.9 99 1016.5 21.3 S 21.3 0.0 2.3
12:38 8.0 7.9 99 1016.5 15.2 SE 20.6 0.0 2.3
12:37 7.9 7.8 99 1016.6 18.3 WSW 20.6 0.0 2.3
12:36 7.9 7.8 99 1016.6 15.2 S 20.6 0.0 2.3
12:35 7.9 7.8 99 1016.5 14.5 SE 20.6 0.0 2.3
12:34 7.9 7.8 99 1016.5 14.5 S 20.6 0.0 2.3
12:33 7.9 7.8 99 1016.6 16.8 S 20.6 0.0 2.3
12:31 7.9 7.8 99 1016.5 18.3 S 21.3 0.0 2.3
12:30 7.9 7.8 99 1016.6 18.3 S 21.3 0.0 2.3
12:29 7.9 7.8 99 1016.6 19.7 S 21.3 0.0 2.3
12:28 7.9 7.8 99 1016.5 17.4 SE 21.3 0.0 2.3
12:27 7.9 7.8 99 1016.6 16.8 S 21.3 0.0 2.3
12:26 7.9 7.8 99 1016.5 17.4 S 21.3 0.0 2.3
12:25 7.9 7.8 99 1016.6 19.0 WNW 21.3 0.0 2.3
12:24 7.9 7.8 99 1016.6 14.5 WSW 21.3 0.0 2.3
12:23 7.9 7.8 99 1016.5 19.0 S 21.3 0.0 2.3
12:22 7.8 7.7 99 1016.6 21.3 NW 21.3 0.0 2.3
12:21 7.8 7.7 99 1016.5 14.5 S 21.3 0.0 2.3
12:20 7.8 7.7 99 1016.5 19.7 WSW 21.3 0.0 2.3
12:19 7.8 7.7 99 1016.7 21.3 SE 21.3 0.0 2.3
12:18 7.8 7.7 99 1016.6 19.0 SE 19.0 0.0 2.3
12:17 7.8 7.7 99 1016.5 13.6 S 19.7 0.0 2.3
12:16 7.8 7.7 99 1016.5 17.4 NNW 19.7 0.0 2.3
12:14 7.8 7.7 99 1016.6 18.3 WSW 21.3 0.0 2.3
12:12 7.7 7.6 99 1016.6 10.7 S 21.3 0.0 2.3
12:11 7.7 7.6 99 1016.5 15.9 S 21.3 0.0 2.3
12:10 7.7 7.6 99 1016.5 16.8 S 21.3 0.0 2.3
12:08 7.7 7.6 99 1016.7 18.3 S 21.3 0.0 2.3
12:07 7.7 7.6 99 1016.7 15.9 SW 21.3 0.0 2.3
12:06 7.7 7.6 99 1016.6 19.7 WSW 21.3 0.0 2.3
12:05 7.7 7.6 99 1016.5 15.9 S 21.3 0.0 2.3
12:04 7.7 7.6 99 1016.6 17.4 S 17.4 0.0 2.3
12:03 7.7 7.6 99 1016.6 14.5 S 17.4 0.0 2.3
12:02 7.7 7.6 99 1016.7 17.4 S 17.4 0.0 2.3
12:01 7.7 7.6 99 1016.7 16.8 SE 16.8 0.0 2.3
12:00 7.7 7.6 99 1016.9 16.8 SE 17.4 0.0 2.3
11:59 7.7 7.6 99 1016.9 16.8 SE 17.4 0.0 2.3
11:58 7.7 7.6 99 1016.9 16.8 S 17.4 0.0 2.3
11:57 7.7 7.6 99 1016.8 15.2 WSW 24.4 0.0 2.3
11:56 7.7 7.6 99 1017.0 14.5 SE 24.4 0.0 2.3
11:55 7.7 7.6 99 1016.8 13.0 S 24.4 0.0 2.3
11:54 7.7 7.6 99 1016.8 13.0 S 24.4 0.0 2.3
11:53 7.7 7.6 99 1017.0 13.6 S 24.4 0.0 2.3
11:52 7.7 7.6 99 1016.8 11.4 S 24.4 0.0 2.3
11:51 7.7 7.6 99 1016.8 15.9 S 24.4 0.0 2.3
11:50 7.7 7.6 99 1016.9 17.4 S 24.4 0.0 2.3
11:49 7.7 7.6 99 1016.8 15.9 SE 24.4 0.0 2.3
11:47 7.7 7.6 99 1017.1 24.4 S 24.4 0.0 2.3
11:44 7.7 7.6 99 1016.9 13.0 S 17.4 0.0 2.3
11:43 7.6 7.5 99 1016.8 13.0 S 18.3 0.0 2.3
11:42 7.6 7.5 99 1016.8 15.2 S 18.3 0.0 2.3
11:41 7.7 7.6 99 1016.9 15.9 S 18.3 0.0 2.3
11:40 7.6 7.5 99 1016.8 15.2 S 18.3 0.0 2.3
11:39 7.7 7.6 99 1016.8 14.5 S 18.3 0.0 2.3
11:38 7.7 7.6 99 1016.8 14.5 W 18.3 0.0 2.3
11:37 7.6 7.5 99 1016.9 17.4 NNE 18.3 0.0 2.3
11:36 7.6 7.5 99 1016.9 16.8 S 18.3 0.0 2.3
11:35 7.6 7.5 99 1017.0 13.6 S 18.3 0.0 2.3
11:34 7.6 7.5 99 1016.9 15.9 S 18.3 0.0 2.3
11:33 7.6 7.5 99 1016.9 13.6 S 18.3 0.0 2.3
11:32 7.6 7.5 99 1017.0 16.8 S 18.3 0.0 2.3
11:31 7.6 7.5 99 1017.0 15.9 S 19.0 0.0 2.3
11:30 7.6 7.5 99 1017.0 14.5 S 19.0 0.0 2.3
11:29 7.6 7.5 99 1017.0 18.3 S 19.7 0.0 2.3
11:28 7.6 7.5 99 1017.0 12.1 S 19.7 0.0 2.3
11:27 7.6 7.5 99 1017.1 13.6 NNW 19.7 0.0 2.3
11:26 7.6 7.5 99 1017.0 12.1 SE 19.7 0.0 2.3
11:25 7.6 7.5 99 1016.9 15.9 WSW 19.7 0.0 2.3
11:24 7.6 7.5 99 1017.0 15.9 N 20.6 0.0 2.3
11:23 7.6 7.5 99 1017.0 16.8 S 20.6 0.0 2.3
11:22 7.6 7.5 99 1017.1 13.6 S 20.6 0.0 2.3
11:21 7.7 7.6 99 1017.1 16.8 S 20.6 0.0 2.3
11:20 7.7 7.6 99 1017.1 16.8 S 20.6 0.0 2.3
11:19 7.7 7.6 99 1017.1 19.7 W 20.6 0.0 2.3
11:18 7.6 7.5 99 1017.0 17.4 S 20.6 0.0 2.3
11:17 7.6 7.5 99 1017.0 16.8 S 20.6 0.0 2.3
11:16 7.6 7.5 99 1017.1 16.8 S 20.6 0.0 2.3
11:14 7.6 7.5 99 1017.1 20.6 WSW 20.6 0.0 2.3
11:13 7.6 7.5 99 1017.0 18.3 S 19.7 0.0 2.3
11:12 7.6 7.5 99 1017.1 19.7 SE 19.7 0.0 2.3
11:11 7.6 7.5 99 1017.1 15.2 S 19.7 0.0 2.3
11:10 7.6 7.5 99 1017.2 15.2 S 19.7 0.0 2.3
11:09 7.6 7.5 99 1017.1 13.0 S 19.7 0.0 2.3
11:08 7.6 7.5 99 1017.0 19.7 WSW 19.7 0.0 2.3
11:07 7.6 7.5 99 1017.0 17.4 S 19.7 0.0 2.3
11:06 7.6 7.5 99 1017.1 13.6 SE 19.7 0.0 2.3
11:05 7.5 7.4 99 1017.1 13.0 S 19.7 0.0 2.3
11:04 7.6 7.5 99 1017.1 14.5 S 19.7 0.0 2.3
11:03 7.5 7.4 99 1017.2 19.7 NNW 19.7 0.0 2.3
11:02 7.5 7.4 99 1017.0 16.8 S 19.7 0.0 2.3
11:01 7.5 7.4 99 1017.2 15.9 NNW 19.7 0.0 2.3
11:00 7.5 7.4 99 1017.2 17.4 S 19.7 0.0 2.3
10:59 7.5 7.4 99 1017.1 17.4 S 19.7 0.0 2.3
10:58 7.5 7.4 99 1017.2 16.8 S 19.7 0.0 2.3
10:57 7.5 7.4 99 1017.2 17.4 S 17.4 0.0 2.3
10:56 7.4 7.3 99 1017.3 12.1 S 17.4 0.0 2.3
10:55 7.4 7.3 99 1017.2 16.8 W 17.4 0.0 2.3
10:54 7.4 7.3 99 1017.2 13.6 S 17.4 0.0 2.3
10:53 7.4 7.3 99 1017.2 13.6 WSW 17.4 0.0 2.3
10:52 7.4 7.3 99 1017.3 12.1 S 17.4 0.0 2.3
10:51 7.4 7.3 99 1017.4 13.6 S 17.4 0.0 2.3
10:50 7.4 7.3 99 1017.5 15.9 S 17.4 0.0 2.3
10:49 7.4 7.3 99 1017.3 14.5 S 17.4 0.0 2.3
10:48 7.3 7.2 99 1017.3 17.4 S 17.4 0.0 2.3
10:47 7.3 7.2 99 1017.3 13.0 S 17.4 0.0 2.3
10:46 7.3 7.2 99 1017.3 10.7 S 19.0 0.0 2.3
10:45 7.3 7.2 99 1017.2 9.8 S 19.0 0.0 2.3
10:44 7.3 7.2 99 1017.3 13.0 S 19.0 0.0 2.3
10:43 7.3 7.2 99 1017.2 13.0 S 19.0 0.0 2.3
10:42 7.3 7.2 99 1017.2 15.9 SE 19.0 0.0 2.3
10:41 7.3 7.2 99 1017.3 13.0 S 19.0 0.0 2.3
10:39 7.3 7.2 99 1017.2 13.6 S 19.0 0.0 2.3
10:38 7.3 7.2 99 1017.5 16.8 W 19.0 0.0 2.3
10:37 7.3 7.2 99 1017.3 17.4 W 19.0 0.0 2.3
10:36 7.3 7.2 99 1017.3 15.9 S 19.0 0.0 2.3
10:35 7.3 7.2 99 1017.2 19.0 WSW 19.0 0.0 2.3
10:34 7.2 7.1 99 1017.2 15.2 S 19.0 0.0 2.3
10:33 7.2 7.1 99 1017.3 15.2 S 19.0 0.0 2.3
10:32 7.2 7.1 99 1017.3 15.2 S 19.0 0.0 2.3
10:31 7.2 7.1 99 1017.4 15.2 SW 19.0 0.0 2.3
10:30 7.3 7.2 99 1017.3 17.4 S 19.0 0.0 2.3
10:29 7.3 7.2 99 1017.3 19.0 S 19.0 0.0 2.3
10:28 7.3 7.2 99 1017.4 13.6 S 18.3 0.0 2.3
10:27 7.3 7.2 99 1017.5 14.5 WSW 18.3 0.0 2.3
10:26 7.3 7.2 99 1017.3 12.1 WSW 18.3 0.0 2.3
10:25 7.3 7.2 99 1017.4 17.4 S 18.3 0.0 2.3
10:24 7.3 7.2 99 1017.3 16.8 SE 19.0 0.0 2.3
10:23 7.3 7.2 99 1017.3 15.9 SE 19.0 0.0 2.3
10:22 7.3 7.2 99 1017.4 11.4 S 19.0 0.0 2.3
10:21 7.3 7.2 99 1017.5 9.2 S 19.0 0.0 2.3
10:20 7.2 7.1 99 1017.4 13.6 S 19.0 0.0 2.3
10:19 7.2 7.1 99 1017.5 18.3 S 19.0 0.0 2.3
10:18 7.2 7.1 99 1017.5 9.8 S 19.0 0.0 2.3
10:17 7.2 7.1 99 1017.6 14.5 WSW 19.0 0.0 2.3
10:16 7.2 7.1 99 1017.5 13.0 S 19.0 0.0 2.3
10:15 7.2 7.1 99 1017.6 19.0 WSW 19.0 0.0 2.3
10:13 7.2 7.1 99 1017.6 14.5 WSW 18.3 0.0 2.3
10:12 7.2 7.1 99 1017.6 17.4 S 18.3 0.0 2.3
10:10 7.2 7.1 99 1017.6 11.4 S 18.3 0.0 2.3
10:09 7.2 7.1 99 1017.7 13.0 S 18.3 0.0 2.3
10:07 7.1 7.0 99 1017.5 13.0 S 18.3 0.0 2.3
10:06 7.1 7.0 99 1017.5 15.2 S 18.3 0.0 2.3
10:05 7.1 7.0 99 1017.6 18.3 S 18.3 0.0 2.3
10:04 7.1 7.0 99 1017.6 12.1 S 14.5 0.0 2.3
10:03 7.1 7.0 99 1017.6 12.1 S 14.5 0.0 2.3
10:02 7.1 7.0 99 1017.6 12.1 S 14.5 0.0 2.3
10:01 7.1 7.0 99 1017.6 12.1 S 14.5 0.0 2.3
10:00 7.1 7.0 99 1017.5 12.1 S 14.5 0.0 2.3
09:59 7.1 7.0 99 1017.6 12.1 S 14.5 0.0 2.3
09:58 7.1 7.0 99 1017.5 12.1 WSW 14.5 0.0 2.3
09:57 7.1 7.0 99 1017.7 14.5 S 15.2 0.0 2.3
09:56 7.1 7.0 99 1017.7 12.1 S 15.2 0.0 2.3
09:55 7.1 7.0 99 1017.4 9.8 WSW 15.9 0.0 2.3
09:54 7.0 6.9 99 1017.7 13.6 S 15.9 0.0 2.3
09:53 7.0 6.9 99 1017.6 13.0 S 15.9 0.0 2.3
09:52 7.0 6.9 99 1017.7 11.4 WSW 15.9 0.0 2.3
09:51 7.0 6.9 99 1017.6 13.6 NW 15.9 0.0 2.3
09:50 7.0 6.9 99 1017.7 14.5 S 15.9 0.0 2.3
09:49 7.0 6.9 99 1017.6 14.5 S 15.9 0.0 2.3
09:48 6.9 6.8 99 1017.7 15.2 NNW 15.9 0.0 2.3
09:47 6.9 6.8 99 1017.8 14.5 S 15.9 0.0 2.3
09:46 6.9 6.8 99 1017.7 14.5 S 15.9 0.0 2.3
09:45 6.9 6.8 99 1017.7 15.9 S 15.9 0.0 2.3
09:44 6.8 6.7 99 1017.7 14.5 S 14.5 0.0 2.3
09:43 6.8 6.7 99 1017.7 14.5 W 14.5 0.0 2.3
09:42 6.8 6.7 99 1017.6 13.0 WSW 13.0 0.0 2.3
09:41 6.8 6.7 99 1017.7 12.1 W 13.0 0.0 2.3
09:40 6.8 6.7 99 1017.7 8.3 S 13.0 0.0 2.3
09:39 6.7 6.6 99 1017.7 11.4 S 13.6 0.0 2.3
09:38 6.7 6.6 99 1017.8 12.1 S 13.6 0.0 2.3
09:37 6.7 6.6 99 1017.6 13.0 S 14.5 0.0 2.3
09:36 6.7 6.6 99 1017.7 10.7 S 14.5 0.0 2.3
09:35 6.7 6.6 99 1017.7 10.7 S 14.5 0.0 2.3
09:34 6.7 6.6 99 1017.7 10.7 S 14.5 0.0 2.3
09:32 6.7 6.6 99 1017.7 11.4 S 14.5 0.0 2.3
09:31 6.7 6.6 99 1017.7 10.7 S 14.5 0.0 2.3
09:30 6.7 6.6 99 1017.7 13.0 S 14.5 0.0 2.3
09:29 6.7 6.6 99 1017.7 13.6 WSW 14.5 0.0 2.3
09:28 6.6 6.5 99 1017.8 9.2 S 14.5 0.0 2.3
09:27 6.6 6.5 99 1017.8 13.0 S 14.5 0.0 2.3
09:26 6.6 6.5 99 1017.7 9.8 S 14.5 0.0 2.3
09:25 6.6 6.5 99 1017.7 12.1 W 14.5 0.0 2.3
09:24 6.6 6.5 99 1017.7 14.5 S 14.5 0.0 2.3
09:23 6.6 6.5 99 1017.7 10.7 S 14.5 0.0 2.3
09:22 6.5 6.4 99 1017.9 11.4 S 14.5 0.0 2.3
09:21 6.5 6.4 99 1017.8 13.0 WSW 14.5 0.0 2.3
09:20 6.5 6.4 99 1017.8 13.0 S 14.5 0.0 2.3
09:19 6.4 6.3 99 1017.8 14.5 WSW 14.5 0.0 2.3
09:18 6.4 6.3 99 1017.9 9.8 S 13.0 0.0 2.3
09:17 6.4 6.3 99 1017.7 9.8 S 13.0 0.0 2.3
09:16 6.4 6.3 99 1017.8 8.3 S 13.0 0.0 2.3
09:15 6.4 6.3 99 1017.9 11.4 S 13.0 0.0 2.3
09:14 6.4 6.3 99 1017.9 10.7 S 12.1 0.0 2.3
09:13 6.3 6.2 99 1018.0 11.4 S 12.1 0.0 2.3
09:12 6.3 6.2 99 1017.9 10.7 S 11.4 0.0 2.3
09:11 6.3 6.2 99 1017.9 9.8 S 11.4 0.0 2.3
09:10 6.3 6.2 99 1017.9 10.7 S 13.6 0.0 2.3
09:09 6.3 6.2 99 1017.8 9.2 S 13.6 0.0 2.3
09:08 6.3 6.2 99 1017.8 9.2 SE 13.6 0.0 2.3
09:07 6.2 6.1 99 1017.7 9.2 W 13.6 0.0 2.3
09:06 6.3 6.2 99 1017.9 11.4 S 13.6 0.0 2.3
09:05 6.3 6.2 99 1017.8 9.8 S 13.6 0.0 2.3
09:04 6.3 6.2 99 1017.8 9.8 S 13.6 0.0 2.3
09:03 6.2 6.1 99 1017.8 11.4 S 13.6 0.0 2.3
09:02 6.3 6.2 99 1017.9 9.2 S 13.6 0.0 2.3
09:01 6.2 6.1 99 1017.9 13.6 S 13.6 0.0 2.3
09:00 6.2 6.1 99 1017.8 13.6 S 13.6 0.0 2.3
08:59 6.2 6.1 99 1017.9 13.6 S 13.6 0.0 2.3
08:58 6.2 6.1 99 1018.0 9.2 S 13.0 0.0 2.3
08:57 6.2 6.1 99 1017.9 11.4 NNE 13.0 0.0 2.3
08:56 6.2 6.1 99 1018.0 11.4 S 13.0 0.8 2.3
08:55 6.2 6.1 99 1018.0 13.0 S 13.0 0.8 2.3
08:54 6.2 6.1 99 1017.9 10.7 S 13.6 0.8 2.3
08:53 6.2 6.1 99 1017.9 11.4 S 15.9 0.8 2.3
08:52 6.2 6.1 99 1018.0 10.7 S 15.9 0.8 2.3
08:51 6.2 6.1 99 1018.1 12.1 S 15.9 0.0 2.3
08:50 6.2 6.1 99 1018.0 9.2 S 15.9 0.0 2.3
08:49 6.2 6.1 99 1018.1 11.4 S 15.9 0.0 2.3
08:48 6.2 6.1 99 1018.0 12.1 SE 15.9 0.0 2.3
08:47 6.2 6.1 99 1018.1 8.3 WSW 15.9 0.8 2.3
08:46 6.1 6.0 99 1018.2 12.1 S 15.9 0.8 2.3
08:44 6.1 6.0 99 1018.2 13.6 SE 15.9 0.8 2.3
08:43 6.1 6.0 99 1018.1 13.6 S 15.9 0.8 2.3
08:42 6.1 6.0 99 1018.1 10.7 S 15.2 0.0 2.3
08:41 6.0 5.9 99 1018.2 13.6 S 15.2 0.0 2.2
08:40 6.1 6.0 99 1018.1 9.8 S 15.2 0.0 2.2
08:39 6.1 6.0 99 1018.2 11.4 WSW 15.2 0.0 2.2
08:38 6.1 6.0 99 1018.3 13.0 WSW 15.2 0.8 2.2
08:37 6.1 6.0 99 1018.1 15.2 S 15.2 0.8 2.2
08:36 6.2 6.1 99 1018.1 14.5 S 14.5 0.8 2.2
08:35 6.0 5.9 99 1018.1 13.0 S 13.0 0.8 2.2
08:34 6.0 5.9 99 1018.0 10.7 S 11.4 0.8 2.2
08:33 6.0 5.9 99 1018.2 9.8 S 12.1 0.0 2.2
08:32 6.0 5.9 99 1018.2 11.4 S 12.1 0.0 2.1
08:31 5.9 5.8 99 1018.2 10.7 S 12.1 0.0 2.1
08:30 6.0 5.9 99 1018.0 9.2 S 12.1 0.0 2.1
08:29 6.0 5.9 99 1018.2 10.7 SE 12.1 0.0 2.1
08:28 6.0 5.9 99 1018.2 8.3 S 12.1 0.0 2.1
08:27 6.0 5.9 99 1018.2 8.3 S 12.1 0.0 2.1
08:26 6.0 5.9 99 1018.1 11.4 S 12.1 0.0 2.1
08:25 5.9 5.8 99 1018.1 9.8 S 12.1 0.0 2.1
08:24 5.9 5.8 99 1018.2 9.8 S 12.1 0.0 2.1
08:23 5.9 5.8 99 1018.2 12.1 S 12.1 0.0 2.1
08:22 5.9 5.8 99 1018.2 8.3 S 12.1 0.8 2.1
08:21 5.9 5.8 99 1018.1 12.1 S 12.1 0.8 2.1
08:20 5.9 5.8 99 1018.2 9.8 W 12.1 0.8 2.1
08:19 5.9 5.8 99 1018.1 10.7 S 12.1 0.8 2.1
08:18 5.9 5.8 99 1018.2 9.8 S 12.1 0.8 2.1
08:17 5.9 5.8 99 1018.2 9.2 S 12.1 0.0 2.1
08:16 5.9 5.8 99 1018.1 9.8 WSW 12.1 0.0 2.1
08:15 5.9 5.8 99 1018.1 9.8 S 12.1 0.8 2.1
08:13 5.9 5.8 99 1018.1 8.3 S 12.1 0.8 2.1
08:12 5.9 5.8 99 1018.0 9.8 S 12.1 0.8 2.1
08:10 5.8 5.7 99 1018.1 9.2 SE 12.1 0.8 2.1
08:09 5.8 5.7 99 1018.2 8.3 S 12.1 0.8 2.0
08:08 5.8 5.7 99 1018.2 9.2 SE 12.1 0.8 2.0
08:07 5.8 5.7 99 1018.1 12.1 S 12.1 0.8 2.0
08:06 5.8 5.7 99 1018.0 8.3 WSW 10.7 0.8 2.0
08:05 5.8 5.7 99 1018.1 10.7 SE 10.7 0.0 2.0
08:04 5.8 5.7 99 1018.2 10.7 SE 10.7 0.0 2.0
08:02 5.8 5.7 99 1018.1 10.7 SE 12.1 0.0 2.0
08:01 5.8 5.7 99 1018.3 10.7 SE 12.1 0.0 2.0
08:00 5.8 5.7 99 1018.2 10.7 SE 13.0 0.0 2.0
07:59 5.8 5.7 99 1018.2 10.7 SE 13.0 0.0 2.0
07:58 5.8 5.7 99 1018.2 10.7 S 13.0 0.0 2.0
07:56 5.8 5.7 99 1018.3 9.8 S 13.0 0.0 2.0
07:55 5.8 5.7 99 1018.3 9.8 S 13.0 0.0 2.0
07:54 5.8 5.7 99 1018.2 9.2 S 13.0 0.0 2.0
07:53 5.8 5.7 99 1018.2 12.1 S 13.0 0.0 2.0
07:51 5.7 5.6 99 1018.3 10.7 SE 13.6 0.8 2.0
07:50 5.7 5.6 99 1018.2 13.0 WSW 13.6 0.8 2.0
07:49 5.8 5.7 99 1018.2 10.7 S 13.6 0.8 2.0
07:48 5.7 5.6 99 1018.2 9.2 S 13.6 0.8 2.0
07:47 5.7 5.6 99 1018.3 9.2 S 13.6 0.8 2.0
07:46 5.7 5.6 99 1018.2 9.2 S 13.6 0.0 1.9
07:45 5.7 5.6 99 1018.2 10.7 S 16.8 0.0 1.9
07:44 5.7 5.6 99 1018.2 12.1 S 16.8 0.0 1.9
07:43 5.7 5.6 99 1018.2 12.1 S 16.8 0.8 1.9
07:42 5.7 5.6 99 1018.2 11.4 S 16.8 0.8 1.9
07:41 5.7 5.6 99 1018.2 11.4 S 16.8 0.8 1.9
07:40 5.7 5.6 99 1018.2 9.2 S 16.8 0.8 1.9
07:39 5.7 5.6 99 1018.2 11.4 S 16.8 0.8 1.9
07:38 5.7 5.6 99 1018.2 10.7 S 16.8 0.0 1.9
07:37 5.6 5.5 99 1018.3 12.1 S 16.8 0.0 1.8
07:36 5.6 5.5 99 1018.2 9.8 S 16.8 0.0 1.8
07:35 5.6 5.5 99 1018.4 16.8 SE 16.8 0.0 1.8
07:33 5.6 5.5 99 1018.3 8.3 WSW 12.1 0.0 1.8
07:32 5.6 5.5 99 1018.3 11.4 S 12.1 0.0 1.8
07:31 5.6 5.5 99 1018.4 10.7 S 13.0 0.8 1.8
07:30 5.6 5.5 99 1018.4 12.1 S 14.5 0.8 1.8
07:29 5.6 5.5 99 1018.5 11.4 S 14.5 0.8 1.8
07:28 5.6 5.5 99 1018.5 9.2 S 14.5 0.8 1.8
07:27 5.6 5.5 99 1018.5 8.3 SE 14.5 0.8 1.8
07:26 5.6 5.5 99 1018.4 9.2 SE 14.5 0.0 1.8
07:25 5.6 5.5 99 1018.5 9.8 S 15.2 0.0 1.8
07:24 5.6 5.5 99 1018.4 11.4 S 15.2 0.0 1.8
07:23 5.6 5.5 99 1018.3 10.7 S 15.2 0.0 1.8
07:22 5.6 5.5 99 1018.4 13.0 S 15.2 0.0 1.8
07:21 5.6 5.5 99 1018.4 14.5 W 15.2 0.0 1.8
07:19 5.6 5.5 99 1018.5 13.0 S 15.2 0.0 1.8
07:18 5.6 5.5 99 1018.4 13.0 S 15.2 0.8 1.8
07:17 5.6 5.5 99 1018.4 9.2 WSW 15.2 0.8 1.8
07:16 5.5 5.4 99 1018.3 15.2 S 15.2 0.8 1.8
07:15 5.5 5.4 99 1018.3 15.2 S 15.2 0.8 1.8
07:14 5.6 5.5 99 1018.3 10.7 W 13.0 0.8 1.8
07:13 5.6 5.5 99 1018.5 10.7 W 13.0 0.0 1.8
07:12 5.6 5.5 99 1018.4 13.0 S 13.0 0.0 1.7
07:11 5.6 5.5 99 1018.4 13.0 NW 13.0 0.0 1.7
07:10 5.6 5.5 99 1018.3 9.8 S 13.0 0.0 1.7
07:09 5.5 5.4 99 1018.5 8.3 S 13.0 0.0 1.7
07:08 5.5 5.4 99 1018.4 13.0 S 13.0 0.0 1.7
07:07 5.5 5.4 99 1018.4 9.2 S 9.2 0.0 1.7
07:06 5.5 5.4 99 1018.4 6.9 S 9.2 0.0 1.7
07:04 5.5 5.4 99 1018.6 9.2 S 9.2 0.0 1.7
07:03 5.5 5.4 99 1018.5 9.2 S 9.2 0.0 1.7
07:02 5.5 5.4 99 1018.5 9.2 S 11.4 0.0 1.7
07:01 5.5 5.4 99 1018.4 9.2 S 11.4 0.0 1.7
07:00 5.5 5.4 99 1018.5 9.2 S 11.4 0.0 1.7
06:59 5.5 5.4 99 1018.5 9.2 S 11.4 0.0 1.7
06:58 5.5 5.4 99 1018.5 8.3 S 13.0 0.0 1.7
06:57 5.5 5.4 99 1018.5 8.3 S 13.0 0.0 1.7
06:56 5.5 5.4 99 1018.5 7.6 S 13.0 0.8 1.7
06:55 5.5 5.4 99 1018.6 8.3 SE 13.0 0.8 1.7
06:54 5.5 5.4 99 1018.6 9.2 SE 13.0 0.8 1.7
06:52 5.5 5.4 99 1018.6 11.4 S 13.0 0.8 1.7
06:51 5.6 5.5 99 1018.7 7.6 S 13.0 0.0 1.7
06:50 5.5 5.4 99 1018.6 8.3 S 13.0 0.0 1.6
06:49 5.5 5.4 99 1018.5 9.8 WSW 13.0 0.0 1.6
06:48 5.5 5.4 99 1018.7 13.0 S 13.0 0.0 1.6
06:47 5.5 5.4 99 1018.7 10.7 S 11.4 0.0 1.6
06:46 5.5 5.4 99 1018.6 8.3 S 11.4 0.0 1.6
06:45 5.6 5.5 99 1018.7 10.7 WSW 10.7 0.0 1.6
06:44 5.5 5.4 99 1018.6 9.2 S 10.7 0.0 1.6
06:43 5.5 5.4 99 1018.7 9.8 WSW 10.7 0.0 1.6
06:42 5.5 5.4 99 1018.7 6.9 S 10.7 0.0 1.6
06:41 5.6 5.5 99 1018.7 9.8 S 10.7 0.0 1.6
06:39 5.5 5.4 99 1018.5 10.7 S 10.7 0.0 1.6
06:38 5.6 5.5 99 1018.6 9.2 S 9.8 0.0 1.6
06:37 5.5 5.4 99 1018.6 6.9 S 9.8 0.0 1.6
06:36 5.5 5.4 99 1018.7 7.6 S 9.8 0.0 1.6
06:35 5.6 5.5 99 1018.5 8.3 S 9.8 0.0 1.6
06:34 5.5 5.4 99 1018.6 8.3 S 10.7 0.0 1.6
06:33 5.6 5.5 99 1018.6 6.9 SE 10.7 0.0 1.6
06:32 5.6 5.5 99 1018.5 8.3 S 10.7 0.0 1.6
06:31 5.6 5.5 99 1018.7 8.3 N 10.7 0.0 1.6
06:30 5.6 5.5 99 1018.6 7.6 S 10.7 0.0 1.6
06:29 5.6 5.5 99 1018.7 9.8 S 10.7 0.0 1.6
06:27 5.6 5.5 99 1018.6 9.2 S 10.7 0.0 1.6
06:26 5.6 5.5 99 1018.7 9.8 N 10.7 0.0 1.6
06:25 5.6 5.5 99 1018.5 9.2 S 12.1 0.0 1.6
06:24 5.6 5.5 99 1018.7 10.7 S 12.1 0.0 1.6
06:23 5.6 5.5 99 1018.5 10.7 S 12.1 0.0 1.6
06:22 5.6 5.5 99 1018.6 8.3 S 12.1 0.0 1.6
06:21 5.6 5.5 99 1018.6 7.6 S 12.1 0.0 1.6
06:20 5.6 5.5 99 1018.7 7.6 S 12.1 0.0 1.6
06:19 5.6 5.5 99 1018.7 9.8 N 12.1 0.0 1.6
06:18 5.6 5.5 99 1018.7 9.2 S 12.1 0.0 1.6
06:17 5.6 5.5 99 1018.7 10.7 S 12.1 0.0 1.6
06:16 5.6 5.5 99 1018.8 12.1 S 12.1 0.0 1.6
06:15 5.5 5.4 99 1018.7 11.4 SE 11.4 0.0 1.6
06:13 5.5 5.4 99 1018.7 10.7 S 10.7 0.0 1.6
06:12 5.5 5.4 99 1018.8 7.6 S 9.8 0.0 1.6
06:11 5.5 5.4 99 1018.7 9.8 S 9.8 0.0 1.6
06:09 5.5 5.4 99 1018.8 9.8 S 9.8 0.8 1.6
06:08 5.5 5.4 99 1018.8 9.8 S 9.8 0.8 1.6
06:07 5.5 5.4 99 1018.7 9.2 S 9.8 0.8 1.6
06:06 5.5 5.4 99 1018.7 9.8 S 9.8 0.8 1.6
06:04 5.4 5.3 99 1018.7 6.9 S 12.1 0.0 1.6
06:03 5.4 5.3 99 1018.7 6.9 S 12.1 0.0 1.6
06:02 5.4 5.3 99 1018.8 6.9 S 12.1 0.0 1.6
06:01 5.4 5.3 99 1018.8 6.9 S 12.1 0.0 1.6
06:00 5.4 5.3 99 1018.8 6.9 S 12.1 0.0 1.6
05:59 5.4 5.3 99 1018.8 6.9 S 12.1 0.0 1.6
05:58 5.4 5.3 99 1018.9 8.3 S 12.1 0.0 1.6
05:57 5.4 5.3 99 1018.9 7.6 S 12.1 0.0 1.6
05:56 5.4 5.3 99 1018.9 8.3 SE 12.1 0.0 1.6
05:55 5.3 5.2 99 1018.8 12.1 S 12.1 0.0 1.6
05:53 5.3 5.2 99 1018.8 7.6 S 9.8 0.8 1.6
05:52 5.3 5.2 99 1018.8 9.2 S 9.8 0.8 1.6
05:51 5.3 5.2 99 1018.8 9.8 S 9.8 0.8 1.6
05:50 5.3 5.2 99 1018.8 6.9 S 9.8 0.8 1.6
05:49 5.3 5.2 99 1018.8 8.3 S 9.8 0.8 1.6
05:48 5.3 5.2 99 1018.7 9.2 S 9.8 0.0 1.6
05:47 5.2 5.1 99 1018.9 5.4 WNW 9.8 0.0 1.5
05:46 5.2 5.1 99 1018.8 8.3 S 9.8 0.8 1.5
05:45 5.2 5.1 99 1019.0 7.6 S 9.8 0.8 1.5
05:44 5.2 5.1 99 1018.7 6.0 S 9.8 0.8 1.5
05:43 5.2 5.1 99 1018.8 7.6 S 9.8 0.8 1.5
05:41 5.2 5.1 99 1019.1 9.8 S 9.8 0.0 1.5
05:40 5.1 5.0 99 1018.8 6.9 S 9.8 0.0 1.4
05:39 5.1 5.0 99 1018.8 8.3 S 9.8 0.0 1.4
05:38 5.0 4.9 99 1018.9 6.9 S 9.8 0.8 1.4
05:37 5.1 5.0 99 1018.9 6.9 WNW 10.7 0.8 1.4
05:36 5.1 5.0 99 1018.9 7.6 W 10.7 0.8 1.4
05:35 5.0 4.9 99 1018.9 9.8 W 10.7 0.8 1.4
05:34 5.0 4.9 99 1019.1 9.2 S 10.7 0.8 1.4
05:33 5.0 4.9 99 1019.0 6.9 S 10.7 0.0 1.4
05:32 5.0 4.9 99 1018.9 6.9 S 10.7 0.0 1.4
05:31 5.0 4.9 99 1019.0 5.4 S 10.7 0.0 1.4
05:30 5.0 4.9 99 1019.1 6.0 S 10.7 0.8 1.4
05:29 5.0 4.9 99 1019.0 4.5 S 10.7 0.8 1.4
05:28 5.0 4.9 99 1019.0 10.7 S 10.7 0.8 1.4
05:26 5.0 4.9 99 1019.0 5.4 S 6.9 0.8 1.4
05:25 5.0 4.9 99 1018.9 5.4 N 6.9 0.0 1.4
05:24 4.9 4.8 99 1019.0 6.0 W 6.9 0.0 1.3
05:23 5.0 4.9 99 1019.1 5.4 W 6.9 0.0 1.3
05:22 4.9 4.8 99 1019.1 4.5 S 6.9 0.0 1.3
05:21 5.0 4.9 99 1019.0 6.0 S 6.9 0.0 1.3
05:20 5.0 4.9 99 1019.0 3.8 SE 6.9 0.0 1.3
05:19 5.0 4.9 99 1019.1 6.0 S 6.0 0.8 1.3
05:18 4.9 4.8 99 1019.2 5.4 S 6.0 0.8 1.3
05:17 4.9 4.8 99 1019.1 5.4 S 5.4 0.8 1.3
05:16 4.9 4.8 99 1019.1 4.5 S 5.4 0.8 1.3
05:15 4.9 4.8 99 1019.0 4.5 S 5.4 0.8 1.3
05:14 4.9 4.8 99 1019.1 3.8 S 6.0 0.0 1.3
05:13 4.9 4.8 99 1019.1 4.5 S 6.0 0.0 1.3
05:12 4.9 4.8 99 1019.1 3.8 S 6.0 0.0 1.3
05:10 4.9 4.8 99 1019.1 4.5 S 6.0 1.5 1.3
05:09 4.9 4.8 99 1019.1 3.8 S 6.0 1.5 1.3
05:08 4.9 4.8 99 1019.1 4.5 S 6.9 1.5 1.3
05:07 4.9 4.8 99 1019.1 5.4 S 6.9 1.5 1.3
05:06 4.9 4.8 99 1019.1 5.4 S 6.9 0.0 1.3
05:05 4.9 4.8 99 1019.1 4.5 S 6.9 0.0 1.1
05:04 4.9 4.8 99 1019.2 6.0 S 8.3 0.0 1.1
05:03 4.9 4.8 99 1019.1 6.0 S 8.3 0.0 1.1
05:02 4.9 4.8 99 1019.1 6.0 S 8.3 0.0 1.1
05:01 4.9 4.8 99 1019.2 6.0 S 8.3 0.8 1.1
05:00 4.9 4.8 99 1019.1 6.0 S 8.3 0.8 1.1
04:59 4.9 4.8 99 1019.1 6.0 S 8.3 0.8 1.1
04:57 4.8 4.7 99 1019.2 6.0 S 8.3 0.8 1.1
04:56 4.8 4.7 99 1019.1 6.9 S 8.3 0.0 1.1
04:55 4.8 4.7 99 1019.1 8.3 S 8.3 0.8 1.1
04:54 4.8 4.7 99 1019.2 6.9 SE 7.6 0.8 1.1
04:53 4.7 4.6 99 1019.1 6.9 S 7.6 0.8 1.1
04:52 4.8 4.7 99 1019.0 6.0 S 7.6 0.8 1.1
04:51 4.8 4.7 99 1019.0 7.6 S 7.6 0.8 1.1
04:50 4.8 4.7 99 1019.0 6.9 S 7.6 0.0 1.0
04:49 4.7 4.6 99 1019.0 6.0 S 7.6 0.0 1.0
04:48 4.7 4.6 99 1019.0 5.4 S 7.6 0.0 1.0
04:47 4.7 4.6 99 1019.0 6.0 S 7.6 0.0 1.0
04:46 4.7 4.6 99 1019.0 6.9 S 7.6 0.0 1.0
04:45 4.7 4.6 99 1019.2 6.0 S 7.6 0.0 1.0
04:44 4.7 4.6 99 1019.1 6.9 S 7.6 0.8 1.0
04:43 4.7 4.6 99 1019.1 6.0 S 8.3 0.8 1.0
04:42 4.7 4.6 99 1019.1 6.9 S 8.3 0.8 1.0
04:40 4.7 4.6 99 1019.0 7.6 S 8.3 0.8 1.0
04:39 4.7 4.6 99 1019.2 7.6 S 8.3 0.0 0.9
04:38 4.7 4.6 99 1019.1 5.4 S 8.3 0.8 0.9
04:37 4.6 4.5 99 1019.2 6.0 S 8.3 0.8 0.9
04:36 4.7 4.6 99 1019.1 6.9 S 8.3 0.8 0.9
04:35 4.7 4.6 99 1019.2 6.9 SE 8.3 0.8 0.9
04:34 4.6 4.5 99 1019.3 6.9 NW 8.3 0.8 0.9
04:33 4.6 4.5 99 1019.3 6.9 S 6.9 0.0 0.9
04:32 4.6 4.5 99 1019.3 6.0 S 6.9 0.0 0.9
04:31 4.6 4.5 99 1019.2 5.4 S 7.6 0.0 0.9
04:30 4.6 4.5 99 1019.2 5.4 S 7.6 0.0 0.9
04:29 4.6 4.5 99 1019.3 5.4 S 7.6 0.0 0.9
04:28 4.6 4.5 99 1019.3 3.8 S 7.6 0.0 0.9
04:27 4.6 4.5 99 1019.2 6.9 S 7.6 0.8 0.9
04:26 4.6 4.5 99 1019.2 5.4 S 7.6 0.8 0.9
04:25 4.6 4.5 99 1019.3 6.0 S 7.6 0.8 0.9
04:23 4.6 4.5 99 1019.2 6.0 S 7.6 0.8 0.9
04:22 4.6 4.5 99 1019.2 6.9 S 7.6 0.0 0.9
04:21 4.6 4.5 99 1019.2 7.6 S 7.6 0.0 0.8
04:20 4.5 4.4 99 1019.3 7.6 W 9.8 0.8 0.8
04:19 4.5 4.4 99 1019.3 6.9 S 9.8 0.8 0.8
04:18 4.5 4.4 99 1019.3 6.0 S 9.8 0.8 0.8
04:17 4.5 4.4 99 1019.4 7.6 S 9.8 0.8 0.8
04:16 4.5 4.4 99 1019.3 6.0 S 9.8 0.8 0.8
04:15 4.5 4.4 99 1019.3 6.0 S 9.8 0.0 0.8
04:14 4.5 4.4 99 1019.3 6.9 S 9.8 0.0 0.8
04:13 4.4 4.3 99 1019.4 7.6 N 9.8 0.0 0.8
04:12 4.4 4.3 99 1019.5 6.0 S 9.8 0.0 0.8
04:11 4.4 4.3 99 1019.4 9.8 S 9.8 0.8 0.8
04:09 4.3 4.2 99 1019.4 6.9 S 6.9 0.8 0.8
04:07 4.4 4.3 99 1019.4 5.4 S 6.0 0.8 0.8
04:06 4.4 4.3 99 1019.5 6.0 S 6.0 0.0 0.8
04:05 4.4 4.3 99 1019.4 4.5 S 6.0 0.0 0.7
04:04 4.3 4.2 99 1019.4 5.4 S 6.0 0.8 0.7
04:03 4.3 4.2 99 1019.5 5.4 S 6.0 0.8 0.7
04:02 4.3 4.2 99 1019.5 5.4 S 6.0 0.8 0.7
04:01 4.3 4.2 99 1019.6 5.4 S 6.0 0.8 0.7
04:00 4.3 4.2 99 1019.6 5.4 S 6.0 0.8 0.7
03:59 4.3 4.2 99 1019.6 5.4 S 8.3 0.0 0.7
03:58 4.3 4.2 99 1019.5 4.5 S 8.3 0.0 0.6
03:56 4.3 4.2 99 1019.5 3.8 S 8.3 0.0 0.6
03:55 4.3 4.2 99 1019.5 6.0 S 8.3 0.0 0.6
03:54 4.3 4.2 99 1019.7 4.5 S 8.3 0.8 0.6
03:53 4.3 4.2 99 1019.6 5.4 S 8.3 0.8 0.6
03:52 4.3 4.2 99 1019.6 5.4 S 8.3 0.8 0.6
03:51 4.3 4.2 99 1019.6 4.5 S 8.3 0.8 0.6
03:50 4.3 4.2 99 1019.7 5.4 S 8.3 0.8 0.6
03:49 4.2 4.1 99 1019.5 5.4 S 6.9 0.0 0.6
03:48 4.2 4.1 99 1019.6 5.4 S 6.9 0.0 0.6
03:47 4.2 4.1 99 1019.7 6.9 S 6.9 0.8 0.6
03:46 4.2 4.1 99 1019.7 6.0 S 6.9 0.8 0.6
03:45 4.2 4.1 99 1019.6 6.9 S 6.9 0.8 0.6
03:44 4.2 4.1 99 1019.7 3.8 S 6.0 0.8 0.6
03:43 4.2 4.1 99 1019.7 5.4 S 6.0 0.8 0.6
03:41 4.2 4.1 99 1019.7 5.4 S 5.4 0.0 0.5
03:40 4.1 4.0 99 1019.7 4.5 S 5.4 0.0 0.5
03:39 4.1 4.0 99 1019.8 3.8 S 5.4 0.0 0.5
03:38 4.1 4.0 99 1019.7 4.5 S 5.4 0.0 0.5
03:37 4.1 4.0 99 1020.0 3.8 S 5.4 0.0 0.5
03:36 4.1 4.0 99 1019.8 4.5 S 5.4 0.0 0.5
03:35 4.1 4.0 99 1019.8 3.8 S 5.4 0.0 0.5
03:34 4.0 3.9 99 1019.9 3.8 S 5.4 0.8 0.5
03:33 4.0 3.9 99 1019.9 5.4 S 5.4 0.8 0.5
03:32 4.0 3.9 99 1019.9 3.8 S 5.4 0.8 0.5
03:30 4.0 3.9 99 1019.7 3.8 S 5.4 0.8 0.5
03:29 4.0 3.9 99 1020.0 3.8 S 5.4 0.0 0.5
03:28 4.0 3.9 99 1020.0 5.4 S 5.4 0.0 0.4
03:27 3.9 3.8 99 1020.0 5.4 S 5.4 0.0 0.4
03:26 3.9 3.8 99 1020.1 4.5 S 4.5 0.8 0.4
03:25 3.9 3.8 99 1020.1 4.5 S 5.4 0.8 0.4
03:24 3.9 3.8 99 1020.1 3.8 S 5.4 0.8 0.4
03:23 3.9 3.8 99 1020.2 3.8 S 5.4 0.8 0.4
03:22 3.9 3.8 99 1020.1 4.5 S 5.4 0.8 0.4
03:21 3.8 3.7 99 1020.2 3.1 S 5.4 0.0 0.4
03:20 3.8 3.7 99 1020.2 3.8 S 5.4 0.0 0.4
03:19 3.8 3.7 99 1020.2 3.8 S 5.4 0.0 0.4
03:18 3.7 3.6 99 1020.2 3.8 S 5.4 0.0 0.4
03:17 3.7 3.6 99 1020.2 3.8 S 5.4 0.0 0.4
03:16 3.7 3.6 99 1020.2 4.5 S 5.4 0.0 0.4
03:15 3.7 3.6 99 1020.2 5.4 S 5.4 0.0 0.4
03:14 3.7 3.6 99 1020.2 4.5 S 4.5 0.0 0.4
03:12 3.6 3.5 99 1020.2 4.5 S 4.5 0.8 0.4
03:11 3.6 3.5 99 1020.3 3.8 S 4.5 0.8 0.4
03:10 3.5 3.4 99 1020.2 4.5 S 4.5 0.8 0.4
03:09 3.5 3.4 99 1020.3 3.8 N 3.8 0.8 0.4
03:08 3.5 3.4 99 1020.2 3.8 N 3.8 0.8 0.4
03:07 3.5 3.4 99 1020.2 3.1 N 3.1 0.0 0.3
03:06 3.5 3.4 99 1020.2 3.1 N 3.1 0.0 0.3
03:05 3.5 3.4 99 1020.4 2.2 N 3.1 0.0 0.3
03:04 3.4 3.3 99 1020.4 2.2 N 3.1 0.0 0.3
03:03 3.4 3.3 99 1020.3 2.2 N 3.1 0.0 0.3
03:02 3.4 3.3 99 1020.3 2.2 N 3.8 0.8 0.3
03:01 3.4 3.3 99 1020.4 2.2 N 3.8 0.8 0.3
03:00 3.4 3.3 99 1020.4 2.2 N 3.8 0.8 0.3
02:59 3.4 3.3 99 1020.4 2.2 N 3.8 0.8 0.3
02:58 3.3 3.2 99 1020.3 2.2 N 3.8 0.8 0.3
02:56 3.3 3.2 99 1020.3 2.2 N 3.8 0.0 0.3
02:55 3.3 3.2 99 1020.4 3.1 N 3.8 0.0 0.3
02:54 3.3 3.2 99 1020.4 2.2 N 3.8 0.0 0.3
02:53 3.3 3.2 99 1020.4 2.2 N 3.8 0.0 0.3
02:52 3.3 3.2 99 1020.3 3.8 N 3.8 0.0 0.3
02:51 3.3 3.2 99 1020.4 3.1 N 3.1 0.0 0.3
02:50 3.3 3.2 99 1020.3 2.2 N 3.1 0.0 0.3
02:49 3.3 3.2 99 1020.3 2.2 N 3.1 0.0 0.3
02:48 3.2 3.1 99 1020.3 2.2 N 3.1 0.0 0.3
02:47 3.2 3.1 99 1020.3 2.2 N 3.1 0.0 0.3
02:46 3.2 3.1 99 1020.2 2.2 N 3.1 0.0 0.3
02:45 3.2 3.1 99 1020.4 2.2 N 3.1 0.0 0.3
02:43 3.2 3.1 99 1020.2 2.2 N 3.1 0.0 0.3
02:42 3.2 3.1 99 1020.2 3.1 N 3.1 0.0 0.3
02:41 3.1 3.0 99 1020.3 2.2 N 3.1 0.8 0.3
02:40 3.1 3.0 99 1020.3 2.2 N 3.1 0.8 0.3
02:39 3.1 3.0 99 1020.3 3.1 N 3.1 0.8 0.3
02:38 3.1 3.0 99 1020.3 3.1 N 3.1 0.8 0.3
02:37 3.1 3.0 99 1020.3 3.1 N 3.1 0.8 0.3
02:36 3.1 3.0 99 1020.3 3.1 N 3.1 0.0 0.2
02:35 3.1 3.0 99 1020.3 3.1 N 3.1 0.0 0.2
02:34 3.0 2.9 99 1020.3 3.1 N 3.1 0.0 0.2
02:33 3.0 2.9 99 1020.4 2.2 N 3.1 0.0 0.2
02:32 3.0 2.9 99 1020.3 3.1 N 3.1 0.0 0.2
02:31 3.0 2.9 99 1020.4 3.1 N 3.1 0.0 0.2
02:30 3.0 2.9 99 1020.4 2.2 N 3.1 0.0 0.2
02:28 2.9 2.8 99 1020.5 3.1 N 3.1 0.0 0.2
02:27 2.9 2.8 99 1020.4 3.1 N 3.1 0.0 0.2
02:26 2.9 2.8 99 1020.4 2.2 N 3.1 0.0 0.2
02:25 2.9 2.8 99 1020.5 3.1 N 3.1 0.0 0.2
02:24 2.9 2.8 99 1020.5 3.1 N 3.1 0.0 0.2
02:23 2.8 2.7 99 1020.6 3.1 N 3.1 0.8 0.2
02:22 2.8 2.7 99 1020.5 3.1 N 3.1 0.8 0.2
02:20 2.8 2.7 99 1020.6 2.2 N 3.1 0.8 0.2
02:19 2.8 2.7 99 1020.5 3.1 N 3.1 0.8 0.2
02:16 2.8 2.7 99 1020.5 2.2 N 2.2 0.0 0.1
02:14 2.7 2.6 99 1020.6 2.2 N 2.2 0.0 0.1
02:12 2.7 2.6 99 1020.5 1.6 N 1.6 0.0 0.1
02:10 2.7 2.6 99 1020.7 1.6 N 1.6 0.0 0.1
02:07 2.6 2.5 99 1020.7 1.6 N 2.2 0.0 0.1
02:04 2.5 2.4 99 1020.6 1.6 N 2.2 0.0 0.1
02:02 2.5 2.4 99 1020.5 1.6 N 3.1 0.0 0.1
01:59 2.5 2.4 99 1020.6 1.6 N 3.1 0.0 0.1
01:56 2.5 2.4 99 1020.7 1.6 N 3.1 0.0 0.1
01:54 2.5 2.4 99 1020.6 2.2 N 3.1 0.0 0.1
01:52 2.4 2.1 98 1020.6 3.1 N 3.1 0.0 0.1
01:49 2.4 2.1 98 1020.8 1.6 N 1.6 0.0 0.1
01:47 2.3 2.0 98 1020.7 1.6 N 1.6 0.8 0.1
01:44 2.3 2.0 98 1020.8 1.6 N 1.6 0.8 0.1
01:42 2.3 2.0 98 1020.8 0.7 N 1.6 0.0 0.1
01:39 2.2 1.9 98 1020.9 1.6 N 1.6 0.0 0.1
01:37 2.2 1.9 98 1020.9 0.7 N 1.6 0.0 0.1
01:35 2.2 1.9 98 1020.8 0.7 N 1.6 0.0 0.1
01:33 2.2 1.9 98 1020.9 1.6 N 1.6 0.0 0.1
01:30 2.1 1.8 98 1021.0 0.7 N 1.6 0.0 0.1
01:28 2.2 1.9 98 1021.0 0.7 N 1.6 0.0 0.1
01:26 2.1 1.8 98 1021.0 0.7 N 1.6 0.0 0.1
01:23 2.1 1.8 98 1020.9 0.7 N 1.6 0.0 0.1
01:21 2.1 1.8 98 1020.9 0.7 N 1.6 0.0 0.1
01:18 2.1 1.8 98 1021.1 1.6 N 1.6 0.0 0.1
01:15 2.1 1.8 98 1021.0 0.7 N 1.6 0.0 0.1
01:13 2.1 1.8 98 1021.0 1.6 N 1.6 0.0 0.1
01:10 2.0 1.7 98 1021.1 1.6 N 1.6 0.0 0.1
01:08 2.0 1.7 98 1021.1 1.6 N 1.6 0.0 0.1
01:05 2.0 1.7 98 1021.0 1.6 N 1.6 0.0 0.1
01:03 2.0 1.7 98 1021.1 1.6 N 1.6 0.0 0.1
01:00 2.0 1.7 98 1021.2 1.6 N 1.6 0.0 0.1
00:58 2.0 1.7 98 1021.1 1.6 N 1.6 0.0 0.1
00:56 2.0 1.7 98 1021.1 1.6 N 1.6 0.8 0.1
00:53 2.0 1.7 98 1021.1 1.6 N 1.6 0.8 0.1
00:51 2.0 1.7 98 1021.3 0.7 N 1.6 0.0 0.0
00:48 2.0 1.7 98 1021.3 1.6 N 1.6 0.0 0.0
00:45 2.0 1.6 97 1021.3 1.6 N 1.6 0.0 0.0
00:44 2.0 1.6 97 1021.3 1.6 N 1.6 0.0 0.0
00:42 1.9 1.5 97 1021.3 0.7 N 0.7 0.0 0.0
00:39 1.9 1.5 97 1021.2 0.0 N 0.7 0.0 0.0
00:37 1.9 1.5 97 1021.3 0.0 N 0.7 0.0 0.0
00:34 2.0 1.6 97 1021.2 0.0 N 0.7 0.0 0.0
00:32 1.9 1.5 97 1021.3 0.0 N 0.7 0.0 0.0
00:29 1.9 1.5 97 1021.4 0.7 N 0.7 0.0 0.0
00:27 1.9 1.5 97 1021.2 0.0 N 0.7 0.0 0.0
00:25 1.9 1.5 97 1021.3 0.0 N 0.7 0.0 0.0
00:23 1.9 1.5 97 1021.2 0.0 N 0.7 0.0 0.0
00:20 1.9 1.5 97 1021.3 0.0 N 0.7 0.0 0.0
00:17 1.9 1.5 97 1021.4 0.7 N 0.7 0.0 0.0
00:14 1.9 1.5 97 1021.3 0.7 N 0.7 0.0 0.0
00:12 1.9 1.5 97 1021.3 0.0 N 0.7 0.0 0.0
00:09 1.9 1.5 97 1021.3 0.0 N 0.7 0.0 0.0
00:06 1.9 1.5 97 1021.4 0.7 N 1.6 0.0 0.0
00:04 2.0 1.6 97 1021.3 0.7 N 1.6 0.0 0.0
00:01 2.0 1.6 97 1021.4 0.7 N 1.6 0.0 0.0

UK - WEATHER STATION TOPSITES - UK World Weather Websites

This is a private weather station, never base important decisions or events on data from this weather station. Although every effort has been made to make the data as accurate as possible it does not meet MetOffice standards. It is proved as a guide of local weather conditions. We accept no liability for any loss which may arise from use of the data.

Copyright © Carnkie Weather 2009 - 2018.